BAW28F KLAX-EGLL
Flight info
| Callsign | BAW28F |
|---|---|
| Flight time | 10h 18m |
| Altitude | 35000 |
| Route | ORCKA5 LAS Q70 BLIPP Q842 WINEN DCT TCH DCT KU87Q DCT KU12S DCT KU21U DCT 50N105W 5330N10000W 5830N09000W/N0490F370 DCT RONPU DCT DUTUM/M083F370 DCT AVPUT DCT 66N050W 6530N04000W 64N030W/M083F390 61N020W DCT GOMUP/N0476F390 DCT GINGA DCT KELLY L10 WAL UY53 NUGRAQEW |
| Aircraft | B77W/H-SDE1E3FGHIJ3J4J5J6M1M2P2RWXYZ/LB1D1 |
Departure
| Time | 2026-05-03 22:14 |
|---|---|
| Airport | Los Angeles International Airport (KLAX) |
Arrival
| Time | 2026-05-04 08:33 |
|---|---|
| Airport | London Heathrow Airport (EGLL) |
| Time | Latitude | Longitude | Altitude | Speed | Heading |
|---|---|---|---|---|---|
| 2026-05-03 21:49 | 33.94087 | -118.40941 | 102 ft | 0 kts | 263° |
| 2026-05-03 22:01 | 33.94088 | -118.40930 | 98 ft | 4 kts | 263° |
| 2026-05-03 22:01 | 33.94091 | -118.40905 | 99 ft | 4 kts | 261° |
| 2026-05-03 22:01 | 33.94097 | -118.40875 | 98 ft | 4 kts | 243° |
| 2026-05-03 22:02 | 33.94110 | -118.40852 | 97 ft | 4 kts | 216° |
| 2026-05-03 22:02 | 33.94128 | -118.40842 | 99 ft | 4 kts | 179° |
| 2026-05-03 22:02 | 33.94122 | -118.40840 | 100 ft | 4 kts | 173° |
| 2026-05-03 22:02 | 33.94095 | -118.40836 | 100 ft | 4 kts | 173° |
| 2026-05-03 22:03 | 33.94068 | -118.40832 | 100 ft | 4 kts | 173° |
| 2026-05-03 22:03 | 33.94041 | -118.40828 | 102 ft | 4 kts | 173° |
| 2026-05-03 22:03 | 33.94014 | -118.40824 | 102 ft | 4 kts | 173° |
| 2026-05-03 22:03 | 33.94008 | -118.40823 | 101 ft | 0 kts | 173° |
| 2026-05-03 22:06 | 33.94003 | -118.40823 | 101 ft | 2 kts | 174° |
| 2026-05-03 22:06 | 33.93974 | -118.40819 | 102 ft | 5 kts | 173° |
| 2026-05-03 22:06 | 33.93939 | -118.40814 | 101 ft | 5 kts | 172° |
| 2026-05-03 22:07 | 33.93904 | -118.40803 | 102 ft | 6 kts | 155° |
| 2026-05-03 22:07 | 33.93876 | -118.40767 | 103 ft | 6 kts | 129° |
| 2026-05-03 22:07 | 33.93845 | -118.40738 | 106 ft | 6 kts | 154° |
| 2026-05-03 22:07 | 33.93814 | -118.40708 | 108 ft | 6 kts | 119° |
| 2026-05-03 22:08 | 33.93811 | -118.40659 | 107 ft | 6 kts | 83° |
| 2026-05-03 22:08 | 33.93816 | -118.40600 | 107 ft | 10 kts | 84° |
| 2026-05-03 22:08 | 33.93828 | -118.40474 | 108 ft | 19 kts | 83° |
| 2026-05-03 22:08 | 33.93845 | -118.40317 | 109 ft | 19 kts | 82° |
| 2026-05-03 22:09 | 33.93862 | -118.40159 | 109 ft | 19 kts | 83° |
| 2026-05-03 22:09 | 33.93878 | -118.40001 | 109 ft | 19 kts | 83° |
| 2026-05-03 22:09 | 33.93894 | -118.39843 | 109 ft | 19 kts | 83° |
| 2026-05-03 22:10 | 33.93926 | -118.39528 | 108 ft | 19 kts | 83° |
| 2026-05-03 22:10 | 33.93943 | -118.39370 | 108 ft | 19 kts | 83° |
| 2026-05-03 22:10 | 33.93958 | -118.39214 | 106 ft | 19 kts | 83° |
| 2026-05-03 22:10 | 33.93975 | -118.39057 | 106 ft | 19 kts | 83° |
| 2026-05-03 22:11 | 33.93990 | -118.38899 | 106 ft | 19 kts | 83° |
| 2026-05-03 22:11 | 33.94006 | -118.38740 | 107 ft | 19 kts | 83° |
| 2026-05-03 22:11 | 33.94023 | -118.38583 | 108 ft | 19 kts | 82° |
| 2026-05-03 22:11 | 33.94040 | -118.38425 | 108 ft | 19 kts | 83° |
| 2026-05-03 22:12 | 33.94055 | -118.38267 | 108 ft | 19 kts | 83° |
| 2026-05-03 22:12 | 33.94071 | -118.38110 | 108 ft | 19 kts | 84° |
| 2026-05-03 22:12 | 33.94070 | -118.38023 | 108 ft | 7 kts | 107° |
| 2026-05-03 22:12 | 33.94031 | -118.38001 | 111 ft | 7 kts | 179° |
| 2026-05-03 22:13 | 33.93990 | -118.38021 | 111 ft | 7 kts | 221° |
| 2026-05-03 22:13 | 33.93979 | -118.38075 | 115 ft | 7 kts | 263° |
| 2026-05-03 22:13 | 33.93973 | -118.38138 | 115 ft | 13 kts | 263° |
| 2026-05-03 22:13 | 33.93947 | -118.38395 | 114 ft | 61 kts | 263° |
| 2026-05-03 22:14 | 33.93860 | -118.39244 | 109 ft | 142 kts | 263° |
| 2026-05-03 22:14 | 33.93720 | -118.40611 | 543 ft | 171 kts | 262° |
| 2026-05-03 22:14 | 33.93595 | -118.41965 | 1608 ft | 161 kts | 260° |
| 2026-05-03 22:14 | 33.93472 | -118.43336 | 2025 ft | 175 kts | 262° |
| 2026-05-03 22:15 | 33.93337 | -118.44879 | 2222 ft | 198 kts | 262° |
| 2026-05-03 22:15 | 33.93184 | -118.46592 | 2437 ft | 219 kts | 263° |
| 2026-05-03 22:15 | 33.93008 | -118.48504 | 2799 ft | 236 kts | 262° |
| 2026-05-03 22:15 | 33.92820 | -118.50532 | 3271 ft | 249 kts | 263° |
| 2026-05-03 22:16 | 33.92495 | -118.52594 | 3870 ft | 254 kts | 245° |
| 2026-05-03 22:16 | 33.91452 | -118.54288 | 4474 ft | 257 kts | 217° |
| 2026-05-03 22:16 | 33.89839 | -118.55198 | 5115 ft | 259 kts | 188° |
| 2026-05-03 22:16 | 33.88087 | -118.55037 | 6064 ft | 250 kts | 160° |
| 2026-05-03 22:17 | 33.86689 | -118.53913 | 7077 ft | 240 kts | 133° |
| 2026-05-03 22:17 | 33.85892 | -118.52159 | 7638 ft | 249 kts | 106° |
| 2026-05-03 22:17 | 33.85855 | -118.49997 | 7812 ft | 276 kts | 77° |
| 2026-05-03 22:17 | 33.86775 | -118.47912 | 8195 ft | 292 kts | 47° |
| 2026-05-03 22:18 | 33.88423 | -118.46437 | 8722 ft | 302 kts | 29° |
| 2026-05-03 22:18 | 33.90318 | -118.45292 | 9340 ft | 307 kts | 26° |
| 2026-05-03 22:18 | 33.92240 | -118.44153 | 9969 ft | 309 kts | 32° |
| 2026-05-03 22:18 | 33.93893 | -118.42487 | 10326 ft | 318 kts | 54° |
| 2026-05-03 22:19 | 33.95165 | -118.40204 | 10513 ft | 339 kts | 60° |
| 2026-05-03 22:19 | 33.96475 | -118.37748 | 10687 ft | 362 kts | 59° |
| 2026-05-03 22:19 | 33.97894 | -118.35172 | 10918 ft | 382 kts | 58° |
| 2026-05-03 22:19 | 33.99427 | -118.32451 | 11510 ft | 392 kts | 57° |
| 2026-05-03 22:20 | 34.00958 | -118.29752 | 12206 ft | 399 kts | 57° |
| 2026-05-03 22:20 | 34.02537 | -118.26972 | 13063 ft | 404 kts | 57° |
| 2026-05-03 22:20 | 34.04132 | -118.24162 | 13914 ft | 409 kts | 57° |
| 2026-05-03 22:20 | 34.05755 | -118.21301 | 14626 ft | 416 kts | 57° |
| 2026-05-03 22:21 | 34.07395 | -118.18404 | 15331 ft | 423 kts | 57° |
| 2026-05-03 22:21 | 34.09064 | -118.15452 | 16040 ft | 429 kts | 56° |
| 2026-05-03 22:21 | 34.10760 | -118.12452 | 16761 ft | 435 kts | 56° |
| 2026-05-03 22:21 | 34.12477 | -118.09411 | 17474 ft | 442 kts | 56° |
| 2026-05-03 22:22 | 34.14195 | -118.06366 | 18173 ft | 448 kts | 56° |
| 2026-05-03 22:22 | 34.15961 | -118.03233 | 18783 ft | 454 kts | 56° |
| 2026-05-03 22:22 | 34.17744 | -118.00066 | 19355 ft | 461 kts | 56° |
| 2026-05-03 22:22 | 34.19560 | -117.96838 | 19912 ft | 468 kts | 56° |
| 2026-05-03 22:23 | 34.21399 | -117.93565 | 20458 ft | 475 kts | 55° |
| 2026-05-03 22:23 | 34.23273 | -117.90229 | 21004 ft | 482 kts | 55° |
| 2026-05-03 22:23 | 34.25154 | -117.86876 | 21526 ft | 488 kts | 55° |
| 2026-05-03 22:23 | 34.27082 | -117.83437 | 22064 ft | 494 kts | 55° |
| 2026-05-03 22:24 | 34.28993 | -117.80022 | 22594 ft | 501 kts | 55° |
| 2026-05-03 22:24 | 34.30947 | -117.76528 | 23061 ft | 507 kts | 55° |
| 2026-05-03 22:24 | 34.32935 | -117.72970 | 23602 ft | 512 kts | 55° |
| 2026-05-03 22:24 | 34.34940 | -117.69376 | 24051 ft | 517 kts | 54° |
| 2026-05-03 22:25 | 34.36996 | -117.65787 | 24551 ft | 519 kts | 53° |
| 2026-05-03 22:25 | 34.39105 | -117.62241 | 25071 ft | 522 kts | 52° |
| 2026-05-03 22:25 | 34.41259 | -117.58680 | 25522 ft | 526 kts | 52° |
| 2026-05-03 22:25 | 34.43437 | -117.55087 | 25991 ft | 529 kts | 52° |
| 2026-05-03 22:26 | 34.45614 | -117.51480 | 26454 ft | 533 kts | 52° |
| 2026-05-03 22:26 | 34.47772 | -117.47881 | 26904 ft | 536 kts | 52° |
| 2026-05-03 22:26 | 34.49960 | -117.44211 | 27351 ft | 540 kts | 52° |
| 2026-05-03 22:26 | 34.52162 | -117.40505 | 27787 ft | 543 kts | 52° |
| 2026-05-03 22:27 | 34.54373 | -117.36776 | 28194 ft | 547 kts | 52° |
| 2026-05-03 22:27 | 34.56603 | -117.33008 | 28600 ft | 550 kts | 52° |
| 2026-05-03 22:27 | 34.58830 | -117.29243 | 29009 ft | 552 kts | 52° |
| 2026-05-03 22:27 | 34.61048 | -117.25491 | 29371 ft | 555 kts | 52° |
| 2026-05-03 22:28 | 34.63311 | -117.21661 | 29699 ft | 559 kts | 52° |
| 2026-05-03 22:28 | 34.65570 | -117.17835 | 30060 ft | 560 kts | 52° |
| 2026-05-03 22:28 | 34.67830 | -117.14001 | 30520 ft | 557 kts | 52° |
| 2026-05-03 22:28 | 34.70084 | -117.10172 | 30937 ft | 556 kts | 52° |
| 2026-05-03 22:29 | 34.72337 | -117.06342 | 31260 ft | 556 kts | 52° |
| 2026-05-03 22:29 | 34.74581 | -117.02524 | 31676 ft | 555 kts | 52° |
| 2026-05-03 22:29 | 34.76823 | -116.98704 | 32161 ft | 552 kts | 52° |
| 2026-05-03 22:29 | 34.79037 | -116.94927 | 32580 ft | 551 kts | 52° |
| 2026-05-03 22:30 | 34.81264 | -116.91127 | 32961 ft | 550 kts | 52° |
| 2026-05-03 22:30 | 34.83453 | -116.87386 | 33348 ft | 549 kts | 52° |
| 2026-05-03 22:30 | 34.85663 | -116.83605 | 33774 ft | 546 kts | 52° |
| 2026-05-03 22:30 | 34.87865 | -116.79834 | 34146 ft | 544 kts | 52° |
| 2026-05-03 22:31 | 34.90049 | -116.76091 | 34445 ft | 543 kts | 52° |
| 2026-05-03 22:31 | 34.92292 | -116.72382 | 34772 ft | 541 kts | 48° |
| 2026-05-03 22:31 | 34.94734 | -116.68945 | 35081 ft | 537 kts | 44° |
| 2026-05-03 22:31 | 34.97278 | -116.65607 | 35357 ft | 536 kts | 43° |
| 2026-05-03 22:32 | 34.99796 | -116.62356 | 35625 ft | 535 kts | 43° |
| 2026-05-03 22:32 | 35.02359 | -116.59051 | 35897 ft | 534 kts | 43° |
| 2026-05-03 22:32 | 35.04901 | -116.55751 | 36192 ft | 533 kts | 43° |
| 2026-05-03 22:32 | 35.07417 | -116.52459 | 36448 ft | 533 kts | 43° |
| 2026-05-03 22:33 | 35.09938 | -116.49140 | 36675 ft | 533 kts | 43° |
| 2026-05-03 22:33 | 35.14976 | -116.42468 | 36779 ft | 534 kts | 44° |
| 2026-05-03 22:34 | 35.20002 | -116.35792 | 36771 ft | 532 kts | 44° |
| 2026-05-03 22:34 | 35.24966 | -116.29192 | 36754 ft | 530 kts | 44° |
| 2026-05-03 22:35 | 35.29955 | -116.22549 | 36754 ft | 530 kts | 44° |
| 2026-05-03 22:35 | 35.34948 | -116.15891 | 36750 ft | 530 kts | 44° |
| 2026-05-03 22:36 | 35.39930 | -116.09232 | 36754 ft | 530 kts | 44° |
| 2026-05-03 22:36 | 35.44920 | -116.02549 | 36753 ft | 530 kts | 44° |
| 2026-05-03 22:37 | 35.49848 | -115.95935 | 36760 ft | 529 kts | 44° |
| 2026-05-03 22:37 | 35.54814 | -115.89256 | 36777 ft | 528 kts | 44° |
| 2026-05-03 22:38 | 35.59749 | -115.82607 | 36788 ft | 528 kts | 44° |
| 2026-05-03 22:38 | 35.64696 | -115.75923 | 36797 ft | 528 kts | 44° |
| 2026-05-03 22:39 | 35.69576 | -115.69233 | 36798 ft | 528 kts | 45° |
| 2026-05-03 22:39 | 35.74461 | -115.62496 | 36815 ft | 526 kts | 45° |
| 2026-05-03 22:40 | 35.79329 | -115.55781 | 36809 ft | 527 kts | 45° |
| 2026-05-03 22:40 | 35.84211 | -115.49041 | 36820 ft | 527 kts | 45° |
| 2026-05-03 22:41 | 35.89054 | -115.42344 | 36832 ft | 527 kts | 45° |
| 2026-05-03 22:41 | 35.93929 | -115.35585 | 36845 ft | 526 kts | 45° |
| 2026-05-03 22:42 | 35.98794 | -115.28827 | 36831 ft | 526 kts | 45° |
| 2026-05-03 22:42 | 36.03642 | -115.22079 | 36794 ft | 525 kts | 45° |
| 2026-05-03 22:43 | 36.08511 | -115.15432 | 36799 ft | 523 kts | 41° |
| 2026-05-03 22:43 | 36.13921 | -115.09473 | 36806 ft | 520 kts | 36° |
| 2026-05-03 22:44 | 36.19436 | -115.03660 | 36757 ft | 520 kts | 36° |
| 2026-05-03 22:44 | 36.24868 | -114.97847 | 36751 ft | 519 kts | 37° |
| 2026-05-03 22:45 | 36.30295 | -114.91972 | 36740 ft | 518 kts | 37° |
| 2026-05-03 22:45 | 36.35715 | -114.86091 | 36740 ft | 517 kts | 37° |
| 2026-05-03 22:46 | 36.41134 | -114.80210 | 36717 ft | 517 kts | 37° |
| 2026-05-03 22:46 | 36.46537 | -114.74327 | 36707 ft | 516 kts | 37° |
| 2026-05-03 22:47 | 36.51884 | -114.68485 | 36704 ft | 516 kts | 37° |
| 2026-05-03 22:47 | 36.57269 | -114.62591 | 36701 ft | 514 kts | 37° |
| 2026-05-03 22:48 | 36.62626 | -114.56716 | 36705 ft | 513 kts | 37° |
| 2026-05-03 22:48 | 36.67976 | -114.50840 | 36715 ft | 512 kts | 38° |
| 2026-05-03 22:49 | 36.73484 | -114.45382 | 36714 ft | 506 kts | 28° |
| 2026-05-03 22:49 | 36.79452 | -114.40729 | 36733 ft | 505 kts | 27° |
| 2026-05-03 22:50 | 36.85434 | -114.36137 | 36737 ft | 505 kts | 27° |
| 2026-05-03 22:50 | 36.91397 | -114.31493 | 36753 ft | 504 kts | 28° |
| 2026-05-03 22:51 | 36.97278 | -114.26866 | 36751 ft | 502 kts | 28° |
| 2026-05-03 22:51 | 37.03184 | -114.22201 | 36771 ft | 502 kts | 28° |
| 2026-05-03 22:52 | 37.09091 | -114.17529 | 36764 ft | 502 kts | 28° |
| 2026-05-03 22:52 | 37.14989 | -114.12858 | 36776 ft | 500 kts | 28° |
| 2026-05-03 22:53 | 37.20815 | -114.08237 | 36785 ft | 499 kts | 28° |
| 2026-05-03 22:53 | 37.26680 | -114.03575 | 36794 ft | 499 kts | 29° |
| 2026-05-03 22:54 | 37.32541 | -113.98909 | 36812 ft | 498 kts | 29° |
| 2026-05-03 22:54 | 37.38390 | -113.94243 | 36801 ft | 497 kts | 29° |
| 2026-05-03 22:55 | 37.44178 | -113.89616 | 36809 ft | 496 kts | 29° |
| 2026-05-03 22:55 | 37.49997 | -113.84957 | 36839 ft | 495 kts | 29° |
| 2026-05-03 22:56 | 37.55803 | -113.80299 | 36828 ft | 495 kts | 29° |
| 2026-05-03 22:56 | 37.61609 | -113.75632 | 36832 ft | 494 kts | 30° |
| 2026-05-03 22:57 | 37.67398 | -113.70970 | 36831 ft | 493 kts | 30° |
| 2026-05-03 22:57 | 37.73143 | -113.66335 | 36834 ft | 493 kts | 30° |
| 2026-05-03 22:58 | 37.78914 | -113.61670 | 36834 ft | 492 kts | 30° |
| 2026-05-03 22:58 | 37.84682 | -113.56998 | 36832 ft | 491 kts | 30° |
| 2026-05-03 22:59 | 37.90393 | -113.52365 | 36830 ft | 491 kts | 30° |
| 2026-05-03 22:59 | 37.96374 | -113.48326 | 36825 ft | 485 kts | 19° |
| 2026-05-03 23:00 | 38.02649 | -113.45226 | 36835 ft | 485 kts | 18° |
| 2026-05-03 23:00 | 38.08945 | -113.42163 | 36826 ft | 484 kts | 18° |
| 2026-05-03 23:01 | 38.15213 | -113.39065 | 36831 ft | 483 kts | 18° |
| 2026-05-03 23:01 | 38.21432 | -113.35953 | 36829 ft | 483 kts | 18° |
| 2026-05-03 23:02 | 38.27690 | -113.32805 | 36850 ft | 483 kts | 18° |
| 2026-05-03 23:02 | 38.33938 | -113.29659 | 36871 ft | 482 kts | 18° |
| 2026-05-03 23:03 | 38.40177 | -113.26513 | 36888 ft | 482 kts | 19° |
| 2026-05-03 23:03 | 38.46370 | -113.23386 | 36902 ft | 483 kts | 19° |
| 2026-05-03 23:04 | 38.52619 | -113.20224 | 36898 ft | 483 kts | 19° |
| 2026-05-03 23:04 | 38.58863 | -113.17059 | 36884 ft | 483 kts | 19° |
| 2026-05-03 23:05 | 38.65102 | -113.13890 | 36877 ft | 483 kts | 19° |
| 2026-05-03 23:05 | 38.71299 | -113.10737 | 36860 ft | 483 kts | 19° |
| 2026-05-03 23:06 | 38.77546 | -113.07551 | 36829 ft | 483 kts | 19° |
| 2026-05-03 23:06 | 38.83788 | -113.04364 | 36818 ft | 483 kts | 19° |
| 2026-05-03 23:07 | 38.90039 | -113.01165 | 36825 ft | 483 kts | 19° |
| 2026-05-03 23:07 | 38.96237 | -112.97988 | 36837 ft | 483 kts | 19° |
| 2026-05-03 23:08 | 39.02479 | -112.94781 | 36831 ft | 484 kts | 19° |
| 2026-05-03 23:08 | 39.08728 | -112.91564 | 36830 ft | 483 kts | 19° |
| 2026-05-03 23:09 | 39.14971 | -112.88346 | 36830 ft | 483 kts | 19° |
| 2026-05-03 23:09 | 39.21172 | -112.85142 | 36851 ft | 484 kts | 19° |
| 2026-05-03 23:10 | 39.27420 | -112.81908 | 36873 ft | 483 kts | 19° |
| 2026-05-03 23:10 | 39.33653 | -112.78675 | 36891 ft | 483 kts | 19° |
| 2026-05-03 23:11 | 39.39899 | -112.75430 | 36908 ft | 484 kts | 19° |
| 2026-05-03 23:11 | 39.46140 | -112.72181 | 36904 ft | 484 kts | 19° |
| 2026-05-03 23:12 | 39.52342 | -112.68945 | 36908 ft | 484 kts | 19° |
| 2026-05-03 23:12 | 39.58581 | -112.65685 | 36894 ft | 484 kts | 19° |
| 2026-05-03 23:13 | 39.64820 | -112.62418 | 36882 ft | 484 kts | 19° |
| 2026-05-03 23:13 | 39.71055 | -112.59146 | 36863 ft | 484 kts | 19° |
| 2026-05-03 23:14 | 39.77261 | -112.55883 | 36857 ft | 483 kts | 19° |
| 2026-05-03 23:14 | 39.83498 | -112.52598 | 36871 ft | 484 kts | 19° |
| 2026-05-03 23:15 | 39.89744 | -112.49302 | 36873 ft | 485 kts | 19° |
| 2026-05-03 23:15 | 39.95985 | -112.46002 | 36865 ft | 484 kts | 19° |
| 2026-05-03 23:16 | 40.02234 | -112.42690 | 36877 ft | 484 kts | 19° |
| 2026-05-03 23:16 | 40.08474 | -112.39377 | 36877 ft | 484 kts | 19° |
| 2026-05-03 23:17 | 40.14669 | -112.36081 | 36875 ft | 484 kts | 19° |
| 2026-05-03 23:17 | 40.20911 | -112.32755 | 36879 ft | 484 kts | 19° |
| 2026-05-03 23:18 | 40.27147 | -112.29424 | 36878 ft | 484 kts | 19° |
| 2026-05-03 23:18 | 40.33332 | -112.26114 | 36896 ft | 484 kts | 19° |
| 2026-05-03 23:19 | 40.39561 | -112.22774 | 36911 ft | 483 kts | 19° |
| 2026-05-03 23:19 | 40.45783 | -112.19432 | 36910 ft | 483 kts | 19° |
| 2026-05-03 23:20 | 40.52000 | -112.16083 | 36919 ft | 483 kts | 19° |
| 2026-05-03 23:20 | 40.58179 | -112.12750 | 36916 ft | 484 kts | 19° |
| 2026-05-03 23:21 | 40.64401 | -112.09387 | 36911 ft | 483 kts | 19° |
| 2026-05-03 23:21 | 40.70623 | -112.06016 | 36931 ft | 483 kts | 19° |
| 2026-05-03 23:22 | 40.79947 | -112.00952 | 36941 ft | 483 kts | 19° |
| 2026-05-03 23:22 | 40.86133 | -111.97593 | 36928 ft | 483 kts | 19° |
| 2026-05-03 23:23 | 40.92405 | -111.94355 | 36965 ft | 488 kts | 19° |
| 2026-05-03 23:23 | 40.98784 | -111.91132 | 36956 ft | 491 kts | 19° |
| 2026-05-03 23:24 | 41.05137 | -111.87900 | 36964 ft | 488 kts | 19° |
| 2026-05-03 23:24 | 41.11421 | -111.84674 | 36969 ft | 486 kts | 19° |
| 2026-05-03 23:25 | 41.17730 | -111.81424 | 36961 ft | 487 kts | 19° |
| 2026-05-03 23:25 | 41.24044 | -111.78166 | 36935 ft | 487 kts | 19° |
| 2026-05-03 23:26 | 41.30350 | -111.74904 | 36933 ft | 487 kts | 19° |
| 2026-05-03 23:26 | 41.36618 | -111.71656 | 36919 ft | 486 kts | 19° |
| 2026-05-03 23:27 | 41.42904 | -111.68391 | 36919 ft | 485 kts | 19° |
| 2026-05-03 23:27 | 41.49201 | -111.65115 | 36918 ft | 485 kts | 19° |
| 2026-05-03 23:28 | 41.55485 | -111.61838 | 36923 ft | 485 kts | 19° |
| 2026-05-03 23:28 | 41.61760 | -111.58558 | 36931 ft | 484 kts | 19° |
| 2026-05-03 23:29 | 41.68001 | -111.55291 | 36935 ft | 484 kts | 19° |
| 2026-05-03 23:29 | 41.74270 | -111.52002 | 36937 ft | 484 kts | 19° |
| 2026-05-03 23:30 | 41.80539 | -111.48706 | 36937 ft | 484 kts | 19° |
| 2026-05-03 23:30 | 41.86809 | -111.45402 | 36922 ft | 484 kts | 19° |
| 2026-05-03 23:31 | 41.93041 | -111.42111 | 36928 ft | 484 kts | 19° |
| 2026-05-03 23:31 | 41.99308 | -111.38795 | 36921 ft | 484 kts | 19° |
| 2026-05-03 23:32 | 42.05560 | -111.35479 | 36925 ft | 483 kts | 19° |
| 2026-05-03 23:32 | 42.11774 | -111.32176 | 36927 ft | 483 kts | 19° |
| 2026-05-03 23:33 | 42.18007 | -111.28858 | 36926 ft | 482 kts | 19° |
| 2026-05-03 23:33 | 42.24254 | -111.25524 | 36932 ft | 482 kts | 19° |
| 2026-05-03 23:34 | 42.30490 | -111.22188 | 36934 ft | 481 kts | 18° |
| 2026-05-03 23:34 | 42.36675 | -111.18873 | 36935 ft | 481 kts | 19° |
| 2026-05-03 23:35 | 42.42890 | -111.15536 | 36951 ft | 481 kts | 19° |
| 2026-05-03 23:35 | 42.49110 | -111.12188 | 36980 ft | 481 kts | 19° |
| 2026-05-03 23:36 | 42.55321 | -111.08839 | 37001 ft | 481 kts | 19° |
| 2026-05-03 23:36 | 42.61543 | -111.05475 | 37022 ft | 481 kts | 19° |
| 2026-05-03 23:37 | 42.67705 | -111.02136 | 37029 ft | 480 kts | 19° |
| 2026-05-03 23:37 | 42.73913 | -110.98766 | 37032 ft | 480 kts | 19° |
| 2026-05-03 23:38 | 42.80112 | -110.95394 | 37034 ft | 480 kts | 19° |
| 2026-05-03 23:38 | 42.86312 | -110.92013 | 37015 ft | 480 kts | 19° |
| 2026-05-03 23:39 | 42.92469 | -110.88649 | 36995 ft | 480 kts | 19° |
| 2026-05-03 23:39 | 42.98670 | -110.85254 | 36968 ft | 479 kts | 19° |
| 2026-05-03 23:40 | 43.04847 | -110.81863 | 36964 ft | 479 kts | 19° |
| 2026-05-03 23:40 | 43.11031 | -110.78462 | 36966 ft | 480 kts | 19° |
| 2026-05-03 23:41 | 43.17223 | -110.75049 | 36964 ft | 479 kts | 19° |
| 2026-05-03 23:41 | 43.23354 | -110.71662 | 36960 ft | 478 kts | 19° |
| 2026-05-03 23:42 | 43.29517 | -110.68252 | 36977 ft | 477 kts | 19° |
| 2026-05-03 23:42 | 43.35663 | -110.64841 | 36994 ft | 476 kts | 19° |
| 2026-05-03 23:43 | 43.41763 | -110.61449 | 37002 ft | 476 kts | 19° |
| 2026-05-03 23:43 | 43.47892 | -110.58035 | 37006 ft | 475 kts | 19° |
| 2026-05-03 23:44 | 43.54013 | -110.54614 | 37025 ft | 474 kts | 19° |
| 2026-05-03 23:44 | 43.60124 | -110.51194 | 37010 ft | 474 kts | 19° |
| 2026-05-03 23:45 | 43.66177 | -110.47800 | 37011 ft | 473 kts | 20° |
| 2026-05-03 23:45 | 43.72277 | -110.44372 | 36997 ft | 473 kts | 20° |
| 2026-05-03 23:46 | 43.78351 | -110.40949 | 37006 ft | 472 kts | 20° |
| 2026-05-03 23:46 | 43.84422 | -110.37521 | 36992 ft | 471 kts | 20° |
| 2026-05-03 23:47 | 43.90480 | -110.34094 | 36993 ft | 470 kts | 20° |
| 2026-05-03 23:47 | 43.96482 | -110.30688 | 37009 ft | 469 kts | 20° |
| 2026-05-03 23:48 | 44.02521 | -110.27256 | 37011 ft | 468 kts | 20° |
| 2026-05-03 23:48 | 44.08546 | -110.23823 | 37013 ft | 468 kts | 20° |
| 2026-05-03 23:49 | 44.14522 | -110.20413 | 37014 ft | 467 kts | 20° |
| 2026-05-03 23:49 | 44.20518 | -110.16982 | 36993 ft | 466 kts | 20° |
| 2026-05-03 23:50 | 44.25502 | -110.14127 | 37014 ft | 467 kts | 20° |
| 2026-05-03 23:50 | 44.32532 | -110.10088 | 37024 ft | 468 kts | 20° |
| 2026-05-03 23:51 | 44.38516 | -110.06637 | 36998 ft | 468 kts | 20° |
| 2026-05-03 23:51 | 44.44517 | -110.03174 | 37016 ft | 466 kts | 20° |
| 2026-05-03 23:52 | 44.50476 | -109.99665 | 36989 ft | 465 kts | 24° |
| 2026-05-03 23:52 | 44.56193 | -109.95414 | 37002 ft | 465 kts | 27° |
| 2026-05-03 23:53 | 44.61842 | -109.91038 | 36974 ft | 464 kts | 27° |
| 2026-05-03 23:53 | 44.67457 | -109.86701 | 36982 ft | 463 kts | 27° |
| 2026-05-03 23:54 | 44.73123 | -109.82348 | 36975 ft | 464 kts | 26° |
| 2026-05-03 23:54 | 44.78807 | -109.77986 | 36977 ft | 466 kts | 26° |
| 2026-05-03 23:55 | 44.84492 | -109.73615 | 36970 ft | 464 kts | 26° |
| 2026-05-03 23:55 | 44.90115 | -109.69278 | 36970 ft | 464 kts | 27° |
| 2026-05-03 23:56 | 44.95754 | -109.64916 | 36961 ft | 463 kts | 27° |
| 2026-05-03 23:56 | 45.01407 | -109.60534 | 36960 ft | 463 kts | 27° |
| 2026-05-03 23:57 | 45.07059 | -109.56149 | 36939 ft | 462 kts | 27° |
| 2026-05-03 23:57 | 45.12691 | -109.51768 | 36939 ft | 463 kts | 27° |
| 2026-05-03 23:58 | 45.18310 | -109.47384 | 36921 ft | 466 kts | 27° |
| 2026-05-03 23:58 | 45.23996 | -109.42937 | 36911 ft | 467 kts | 27° |
| 2026-05-03 23:59 | 45.29694 | -109.38472 | 36882 ft | 466 kts | 27° |
| 2026-05-03 23:59 | 45.35358 | -109.34021 | 36860 ft | 463 kts | 27° |
| 2026-05-04 00:00 | 45.40944 | -109.29622 | 36858 ft | 462 kts | 27° |
| 2026-05-04 00:00 | 45.46563 | -109.25189 | 36839 ft | 462 kts | 27° |
| 2026-05-04 00:01 | 45.52196 | -109.20737 | 36839 ft | 464 kts | 27° |
| 2026-05-04 00:01 | 45.57849 | -109.16256 | 36829 ft | 466 kts | 27° |
| 2026-05-04 00:02 | 45.63468 | -109.11790 | 36819 ft | 465 kts | 27° |
| 2026-05-04 00:02 | 45.69099 | -109.07304 | 36811 ft | 462 kts | 27° |
| 2026-05-04 00:03 | 45.74717 | -109.02820 | 36821 ft | 461 kts | 27° |
| 2026-05-04 00:03 | 45.80316 | -108.98340 | 36827 ft | 462 kts | 27° |
| 2026-05-04 00:04 | 45.85926 | -108.93841 | 36827 ft | 461 kts | 27° |
| 2026-05-04 00:04 | 45.91467 | -108.89387 | 36825 ft | 460 kts | 27° |
| 2026-05-04 00:05 | 45.97055 | -108.84885 | 36824 ft | 460 kts | 27° |
| 2026-05-04 00:05 | 46.02629 | -108.80383 | 36821 ft | 459 kts | 27° |
| 2026-05-04 00:06 | 46.08193 | -108.75879 | 36815 ft | 459 kts | 27° |
| 2026-05-04 00:06 | 46.13761 | -108.71362 | 36805 ft | 459 kts | 27° |
| 2026-05-04 00:07 | 46.19273 | -108.66879 | 36804 ft | 457 kts | 27° |
| 2026-05-04 00:07 | 46.24812 | -108.62363 | 36802 ft | 457 kts | 27° |
| 2026-05-04 00:08 | 46.30339 | -108.57848 | 36800 ft | 456 kts | 27° |
| 2026-05-04 00:08 | 46.35826 | -108.53354 | 36803 ft | 455 kts | 27° |
| 2026-05-04 00:09 | 46.41331 | -108.48834 | 36805 ft | 455 kts | 27° |
| 2026-05-04 00:09 | 46.46832 | -108.44309 | 36801 ft | 455 kts | 27° |
| 2026-05-04 00:10 | 46.52342 | -108.39765 | 36797 ft | 455 kts | 27° |
| 2026-05-04 00:10 | 46.57836 | -108.35222 | 36803 ft | 455 kts | 27° |
| 2026-05-04 00:11 | 46.63296 | -108.30697 | 36786 ft | 455 kts | 27° |
| 2026-05-04 00:11 | 46.68809 | -108.26119 | 36806 ft | 456 kts | 26° |
| 2026-05-04 00:12 | 46.74322 | -108.21529 | 36800 ft | 457 kts | 26° |
| 2026-05-04 00:12 | 46.79850 | -108.16915 | 36792 ft | 458 kts | 26° |
| 2026-05-04 00:13 | 46.85379 | -108.12289 | 36797 ft | 458 kts | 26° |
| 2026-05-04 00:13 | 46.90872 | -108.07681 | 36796 ft | 458 kts | 26° |
| 2026-05-04 00:14 | 46.96410 | -108.03028 | 36787 ft | 459 kts | 26° |
| 2026-05-04 00:14 | 47.01769 | -107.97875 | 36784 ft | 464 kts | 36° |
| 2026-05-04 00:15 | 47.06650 | -107.91631 | 36785 ft | 467 kts | 38° |
| 2026-05-04 00:15 | 47.11460 | -107.85340 | 36776 ft | 467 kts | 37° |
| 2026-05-04 00:16 | 47.16321 | -107.79015 | 36782 ft | 467 kts | 37° |
| 2026-05-04 00:16 | 47.21205 | -107.72687 | 36788 ft | 468 kts | 37° |
| 2026-05-04 00:17 | 47.26056 | -107.66401 | 36782 ft | 469 kts | 37° |
| 2026-05-04 00:17 | 47.30941 | -107.60054 | 36781 ft | 469 kts | 37° |
| 2026-05-04 00:18 | 47.35842 | -107.53666 | 36787 ft | 470 kts | 37° |
| 2026-05-04 00:18 | 47.40734 | -107.47273 | 36778 ft | 470 kts | 37° |
| 2026-05-04 00:19 | 47.44800 | -107.41948 | 36782 ft | 471 kts | 37° |
| 2026-05-04 00:19 | 47.50492 | -107.34472 | 36776 ft | 471 kts | 37° |
| 2026-05-04 00:20 | 47.55399 | -107.28010 | 36779 ft | 472 kts | 36° |
| 2026-05-04 00:20 | 47.59463 | -107.22645 | 36777 ft | 472 kts | 36° |
| 2026-05-04 00:21 | 47.64356 | -107.16170 | 36773 ft | 471 kts | 36° |
| 2026-05-04 00:21 | 47.69245 | -107.09683 | 36770 ft | 472 kts | 36° |
| 2026-05-04 00:22 | 47.74923 | -107.02129 | 36775 ft | 471 kts | 36° |
| 2026-05-04 00:22 | 47.78979 | -106.96719 | 36762 ft | 471 kts | 36° |
| 2026-05-04 00:23 | 47.83857 | -106.90196 | 36760 ft | 471 kts | 36° |
| 2026-05-04 00:23 | 47.88723 | -106.83672 | 36755 ft | 472 kts | 36° |
| 2026-05-04 00:24 | 47.93603 | -106.77111 | 36748 ft | 472 kts | 36° |
| 2026-05-04 00:24 | 47.98480 | -106.70538 | 36735 ft | 473 kts | 36° |
| 2026-05-04 00:25 | 48.03318 | -106.64000 | 36720 ft | 473 kts | 36° |
| 2026-05-04 00:25 | 48.08182 | -106.57407 | 36721 ft | 472 kts | 36° |
| 2026-05-04 00:26 | 48.13049 | -106.50796 | 36729 ft | 473 kts | 36° |
| 2026-05-04 00:26 | 48.17920 | -106.44160 | 36727 ft | 473 kts | 36° |
| 2026-05-04 00:27 | 48.22750 | -106.37562 | 36730 ft | 473 kts | 36° |
| 2026-05-04 00:27 | 48.27618 | -106.30894 | 36731 ft | 474 kts | 36° |
| 2026-05-04 00:28 | 48.32484 | -106.24212 | 36729 ft | 475 kts | 36° |
| 2026-05-04 00:28 | 48.37354 | -106.17504 | 36723 ft | 475 kts | 36° |
| 2026-05-04 00:29 | 48.42185 | -106.10833 | 36730 ft | 475 kts | 35° |
| 2026-05-04 00:29 | 48.47075 | -106.04114 | 36733 ft | 474 kts | 32° |
| 2026-05-04 00:30 | 48.52434 | -105.98575 | 36736 ft | 462 kts | 21° |
| 2026-05-04 00:30 | 48.58206 | -105.94532 | 36727 ft | 456 kts | 15° |
| 2026-05-04 00:31 | 48.64055 | -105.90824 | 36723 ft | 456 kts | 15° |
| 2026-05-04 00:31 | 48.69856 | -105.87118 | 36727 ft | 456 kts | 15° |
| 2026-05-04 00:32 | 48.75678 | -105.83346 | 36724 ft | 456 kts | 15° |
| 2026-05-04 00:32 | 48.81504 | -105.79543 | 36720 ft | 456 kts | 15° |
| 2026-05-04 00:33 | 48.90217 | -105.73833 | 36719 ft | 457 kts | 15° |
| 2026-05-04 00:34 | 48.96053 | -105.69997 | 36719 ft | 457 kts | 15° |
| 2026-05-04 00:34 | 49.01901 | -105.66145 | 36720 ft | 458 kts | 15° |
| 2026-05-04 00:35 | 49.07751 | -105.62281 | 36713 ft | 458 kts | 15° |
| 2026-05-04 00:35 | 49.13604 | -105.58405 | 36708 ft | 458 kts | 15° |
| 2026-05-04 00:36 | 49.19403 | -105.54555 | 36706 ft | 458 kts | 15° |
| 2026-05-04 00:36 | 49.25260 | -105.50657 | 36699 ft | 459 kts | 15° |
| 2026-05-04 00:37 | 49.31119 | -105.46748 | 36703 ft | 460 kts | 15° |
| 2026-05-04 00:37 | 49.36985 | -105.42824 | 36705 ft | 460 kts | 15° |
| 2026-05-04 00:38 | 49.42805 | -105.38919 | 36705 ft | 460 kts | 15° |
| 2026-05-04 00:38 | 49.48669 | -105.34974 | 36703 ft | 461 kts | 14° |
| 2026-05-04 00:39 | 49.54542 | -105.31015 | 36692 ft | 461 kts | 14° |
| 2026-05-04 00:39 | 49.60391 | -105.27061 | 36704 ft | 461 kts | 14° |
| 2026-05-04 00:40 | 49.66267 | -105.23078 | 36696 ft | 462 kts | 14° |
| 2026-05-04 00:40 | 49.72151 | -105.19077 | 36689 ft | 461 kts | 14° |
| 2026-05-04 00:41 | 49.78013 | -105.15082 | 36697 ft | 461 kts | 14° |
| 2026-05-04 00:41 | 49.83896 | -105.11062 | 36698 ft | 462 kts | 14° |
| 2026-05-04 00:42 | 49.89733 | -105.07062 | 36697 ft | 462 kts | 14° |
| 2026-05-04 00:42 | 49.95596 | -105.03035 | 36694 ft | 461 kts | 14° |
| 2026-05-04 00:43 | 50.01290 | -104.98222 | 36699 ft | 473 kts | 25° |
| 2026-05-04 00:43 | 50.06530 | -104.91828 | 36697 ft | 481 kts | 31° |
| 2026-05-04 00:44 | 50.11644 | -104.85107 | 36694 ft | 481 kts | 31° |
| 2026-05-04 00:44 | 50.16716 | -104.78446 | 36693 ft | 480 kts | 31° |
| 2026-05-04 00:45 | 50.21840 | -104.71763 | 36676 ft | 480 kts | 31° |
| 2026-05-04 00:45 | 50.26979 | -104.65071 | 36677 ft | 480 kts | 31° |
| 2026-05-04 00:46 | 50.32107 | -104.58378 | 36667 ft | 480 kts | 31° |
| 2026-05-04 00:46 | 50.37194 | -104.51718 | 36668 ft | 480 kts | 31° |
| 2026-05-04 00:47 | 50.42310 | -104.44998 | 36669 ft | 480 kts | 31° |
| 2026-05-04 00:47 | 50.47434 | -104.38248 | 36676 ft | 481 kts | 31° |
| 2026-05-04 00:48 | 50.52529 | -104.31516 | 36685 ft | 482 kts | 31° |
| 2026-05-04 00:48 | 50.57656 | -104.24720 | 36685 ft | 482 kts | 32° |
| 2026-05-04 00:49 | 50.62768 | -104.17925 | 36673 ft | 482 kts | 32° |
| 2026-05-04 00:49 | 50.67891 | -104.11094 | 36687 ft | 483 kts | 32° |
| 2026-05-04 00:50 | 50.72990 | -104.04277 | 36682 ft | 484 kts | 32° |
| 2026-05-04 00:50 | 50.78119 | -103.97398 | 36678 ft | 484 kts | 32° |
| 2026-05-04 00:51 | 50.83252 | -103.90494 | 36673 ft | 484 kts | 32° |
| 2026-05-04 00:51 | 50.88361 | -103.83600 | 36665 ft | 484 kts | 33° |
| 2026-05-04 00:52 | 50.93496 | -103.76653 | 36667 ft | 485 kts | 33° |
| 2026-05-04 00:52 | 50.98582 | -103.69751 | 36659 ft | 485 kts | 33° |
| 2026-05-04 00:53 | 51.03716 | -103.62762 | 36638 ft | 485 kts | 33° |
| 2026-05-04 00:53 | 51.08825 | -103.55783 | 36639 ft | 485 kts | 33° |
| 2026-05-04 00:54 | 51.13930 | -103.48792 | 36639 ft | 484 kts | 34° |
| 2026-05-04 00:54 | 51.19002 | -103.41824 | 36634 ft | 484 kts | 34° |
| 2026-05-04 00:55 | 51.24096 | -103.34806 | 36637 ft | 484 kts | 34° |
| 2026-05-04 00:55 | 51.29200 | -103.27752 | 36631 ft | 484 kts | 34° |
| 2026-05-04 00:56 | 51.34291 | -103.20695 | 36626 ft | 484 kts | 34° |
| 2026-05-04 00:56 | 51.39343 | -103.13669 | 36624 ft | 484 kts | 34° |
| 2026-05-04 00:57 | 51.44409 | -103.06603 | 36622 ft | 484 kts | 34° |
| 2026-05-04 00:57 | 51.49487 | -102.99501 | 36620 ft | 484 kts | 35° |
| 2026-05-04 00:58 | 51.54566 | -102.92373 | 36616 ft | 485 kts | 35° |
| 2026-05-04 00:58 | 51.59636 | -102.85236 | 36610 ft | 485 kts | 35° |
| 2026-05-04 00:59 | 51.64671 | -102.78126 | 36604 ft | 485 kts | 35° |
| 2026-05-04 00:59 | 51.69744 | -102.70940 | 36605 ft | 485 kts | 35° |
| 2026-05-04 01:00 | 51.74807 | -102.63747 | 36599 ft | 486 kts | 36° |
| 2026-05-04 01:00 | 51.79873 | -102.56527 | 36596 ft | 486 kts | 36° |
| 2026-05-04 01:01 | 51.84903 | -102.49334 | 36586 ft | 486 kts | 36° |
| 2026-05-04 01:01 | 51.89961 | -102.42081 | 36590 ft | 486 kts | 36° |
| 2026-05-04 01:02 | 51.95010 | -102.34817 | 36585 ft | 486 kts | 36° |
| 2026-05-04 01:02 | 52.00057 | -102.27533 | 36578 ft | 485 kts | 36° |
| 2026-05-04 01:03 | 52.05070 | -102.20277 | 36575 ft | 485 kts | 36° |
| 2026-05-04 01:03 | 52.10102 | -102.12969 | 36574 ft | 485 kts | 36° |
| 2026-05-04 01:04 | 52.15138 | -102.05632 | 36573 ft | 485 kts | 37° |
| 2026-05-04 01:04 | 52.20124 | -101.98344 | 36564 ft | 485 kts | 37° |
| 2026-05-04 01:05 | 52.25140 | -101.90991 | 36559 ft | 485 kts | 37° |
| 2026-05-04 01:05 | 52.30156 | -101.83614 | 36557 ft | 485 kts | 37° |
| 2026-05-04 01:06 | 52.35163 | -101.76227 | 36551 ft | 484 kts | 37° |
| 2026-05-04 01:06 | 52.40161 | -101.68829 | 36556 ft | 484 kts | 37° |
| 2026-05-04 01:07 | 52.45156 | -101.61413 | 36552 ft | 485 kts | 37° |
| 2026-05-04 01:07 | 52.50108 | -101.54037 | 36550 ft | 485 kts | 37° |
| 2026-05-04 01:08 | 52.55099 | -101.46577 | 36533 ft | 485 kts | 37° |
| 2026-05-04 01:08 | 52.60083 | -101.39105 | 36533 ft | 485 kts | 38° |
| 2026-05-04 01:09 | 52.65062 | -101.31616 | 36532 ft | 485 kts | 38° |
| 2026-05-04 01:09 | 52.70045 | -101.24100 | 36536 ft | 485 kts | 38° |
| 2026-05-04 01:10 | 52.74985 | -101.16620 | 36527 ft | 485 kts | 38° |
| 2026-05-04 01:10 | 52.79949 | -101.09081 | 36520 ft | 485 kts | 38° |
| 2026-05-04 01:11 | 52.84906 | -101.01528 | 36516 ft | 485 kts | 38° |
| 2026-05-04 01:11 | 52.89835 | -100.93995 | 36513 ft | 485 kts | 38° |
| 2026-05-04 01:12 | 52.94781 | -100.86410 | 36510 ft | 485 kts | 38° |
| 2026-05-04 01:12 | 52.99736 | -100.78787 | 36504 ft | 485 kts | 38° |
| 2026-05-04 01:13 | 53.04669 | -100.71172 | 36498 ft | 484 kts | 39° |
| 2026-05-04 01:13 | 53.09601 | -100.63533 | 36497 ft | 484 kts | 39° |
| 2026-05-04 01:14 | 53.14495 | -100.55930 | 36491 ft | 484 kts | 39° |
| 2026-05-04 01:14 | 53.19413 | -100.48262 | 36488 ft | 484 kts | 39° |
| 2026-05-04 01:15 | 53.24316 | -100.40595 | 36479 ft | 484 kts | 39° |
| 2026-05-04 01:15 | 53.29226 | -100.32889 | 36473 ft | 483 kts | 39° |
| 2026-05-04 01:16 | 53.34077 | -100.25251 | 36474 ft | 483 kts | 39° |
| 2026-05-04 01:16 | 53.38972 | -100.17519 | 36477 ft | 484 kts | 39° |
| 2026-05-04 01:17 | 53.43863 | -100.09767 | 36469 ft | 483 kts | 39° |
| 2026-05-04 01:17 | 53.48741 | -100.02013 | 36469 ft | 483 kts | 39° |
| 2026-05-04 01:18 | 53.53590 | -99.94206 | 36467 ft | 483 kts | 40° |
| 2026-05-04 01:18 | 53.58374 | -99.86353 | 36472 ft | 483 kts | 40° |
| 2026-05-04 01:19 | 53.63172 | -99.78441 | 36468 ft | 483 kts | 40° |
| 2026-05-04 01:19 | 53.67977 | -99.70508 | 36473 ft | 483 kts | 40° |
| 2026-05-04 01:20 | 53.72748 | -99.62616 | 36460 ft | 484 kts | 41° |
| 2026-05-04 01:20 | 53.77539 | -99.54665 | 36470 ft | 484 kts | 41° |
| 2026-05-04 01:21 | 53.82332 | -99.46684 | 36475 ft | 484 kts | 41° |
| 2026-05-04 01:21 | 53.87116 | -99.38692 | 36481 ft | 483 kts | 41° |
| 2026-05-04 01:22 | 53.91896 | -99.30677 | 36482 ft | 483 kts | 41° |
| 2026-05-04 01:22 | 53.96644 | -99.22690 | 36483 ft | 483 kts | 41° |
| 2026-05-04 01:23 | 54.01417 | -99.14632 | 36487 ft | 483 kts | 41° |
| 2026-05-04 01:23 | 54.06176 | -99.06570 | 36487 ft | 483 kts | 41° |
| 2026-05-04 01:24 | 54.10944 | -98.98466 | 36487 ft | 483 kts | 41° |
| 2026-05-04 01:24 | 54.15664 | -98.90415 | 36491 ft | 483 kts | 42° |
| 2026-05-04 01:25 | 54.20404 | -98.82304 | 36492 ft | 483 kts | 42° |
| 2026-05-04 01:25 | 54.25145 | -98.74161 | 36497 ft | 483 kts | 42° |
| 2026-05-04 01:26 | 54.29878 | -98.66006 | 36502 ft | 483 kts | 42° |
| 2026-05-04 01:26 | 54.34571 | -98.57890 | 36503 ft | 483 kts | 42° |
| 2026-05-04 01:27 | 54.39310 | -98.49668 | 36501 ft | 483 kts | 42° |
| 2026-05-04 01:27 | 54.44020 | -98.41465 | 36506 ft | 483 kts | 43° |
| 2026-05-04 01:28 | 54.48738 | -98.33221 | 36511 ft | 483 kts | 43° |
| 2026-05-04 01:28 | 54.53443 | -98.24971 | 36502 ft | 483 kts | 43° |
| 2026-05-04 01:29 | 54.58109 | -98.16761 | 36501 ft | 483 kts | 43° |
| 2026-05-04 01:29 | 54.62802 | -98.08474 | 36518 ft | 483 kts | 43° |
| 2026-05-04 01:30 | 54.67497 | -98.00156 | 36518 ft | 483 kts | 43° |
| 2026-05-04 01:30 | 54.72183 | -97.91823 | 36513 ft | 483 kts | 43° |
| 2026-05-04 01:31 | 54.76859 | -97.83479 | 36518 ft | 483 kts | 43° |
| 2026-05-04 01:31 | 54.81502 | -97.75162 | 36523 ft | 483 kts | 43° |
| 2026-05-04 01:32 | 54.86182 | -97.66752 | 36522 ft | 483 kts | 44° |
| 2026-05-04 01:32 | 54.90838 | -97.58353 | 36524 ft | 483 kts | 44° |
| 2026-05-04 01:33 | 54.95495 | -97.49923 | 36522 ft | 483 kts | 44° |
| 2026-05-04 01:33 | 55.00123 | -97.41517 | 36522 ft | 484 kts | 44° |
| 2026-05-04 01:34 | 55.04773 | -97.33042 | 36527 ft | 484 kts | 44° |
| 2026-05-04 01:34 | 55.09413 | -97.24551 | 36526 ft | 484 kts | 44° |
| 2026-05-04 01:35 | 55.14057 | -97.16025 | 36523 ft | 484 kts | 44° |
| 2026-05-04 01:35 | 55.18655 | -97.07551 | 36524 ft | 484 kts | 44° |
| 2026-05-04 01:36 | 55.23286 | -96.98987 | 36527 ft | 484 kts | 44° |
| 2026-05-04 01:36 | 55.27902 | -96.90418 | 36529 ft | 484 kts | 45° |
| 2026-05-04 01:37 | 55.32525 | -96.81807 | 36528 ft | 484 kts | 45° |
| 2026-05-04 01:37 | 55.37106 | -96.73241 | 36528 ft | 484 kts | 45° |
| 2026-05-04 01:38 | 55.41715 | -96.64593 | 36527 ft | 484 kts | 45° |
| 2026-05-04 01:38 | 55.46315 | -96.55929 | 36534 ft | 485 kts | 45° |
| 2026-05-04 01:39 | 55.50915 | -96.47235 | 36539 ft | 484 kts | 45° |
| 2026-05-04 01:39 | 55.55503 | -96.38530 | 36540 ft | 484 kts | 45° |
| 2026-05-04 01:40 | 55.60052 | -96.29867 | 36546 ft | 484 kts | 45° |
| 2026-05-04 01:40 | 55.64626 | -96.21125 | 36556 ft | 484 kts | 45° |
| 2026-05-04 01:41 | 55.69195 | -96.12360 | 36554 ft | 484 kts | 45° |
| 2026-05-04 01:41 | 55.73733 | -96.03624 | 36556 ft | 485 kts | 45° |
| 2026-05-04 01:42 | 55.78288 | -95.94822 | 36564 ft | 485 kts | 45° |
| 2026-05-04 01:42 | 55.82841 | -95.85990 | 36565 ft | 484 kts | 45° |
| 2026-05-04 01:43 | 55.87388 | -95.77136 | 36570 ft | 485 kts | 45° |
| 2026-05-04 01:43 | 55.91922 | -95.68274 | 36572 ft | 483 kts | 46° |
| 2026-05-04 01:44 | 55.96447 | -95.59397 | 36584 ft | 484 kts | 46° |
| 2026-05-04 01:44 | 56.00938 | -95.50557 | 36584 ft | 484 kts | 46° |
| 2026-05-04 01:45 | 56.05446 | -95.41646 | 36587 ft | 483 kts | 46° |
| 2026-05-04 01:45 | 56.12192 | -95.28251 | 36597 ft | 483 kts | 46° |
| 2026-05-04 01:46 | 56.16695 | -95.19266 | 36598 ft | 485 kts | 46° |
| 2026-05-04 01:46 | 56.21175 | -95.10296 | 36591 ft | 485 kts | 46° |
| 2026-05-04 01:47 | 56.25667 | -95.01263 | 36591 ft | 484 kts | 46° |
| 2026-05-04 01:47 | 56.30151 | -94.92211 | 36586 ft | 484 kts | 46° |
| 2026-05-04 01:48 | 56.34595 | -94.83212 | 36584 ft | 484 kts | 47° |
| 2026-05-04 01:48 | 56.39068 | -94.74117 | 36585 ft | 485 kts | 47° |
| 2026-05-04 01:49 | 56.43547 | -94.64973 | 36583 ft | 486 kts | 47° |
| 2026-05-04 01:49 | 56.48023 | -94.55804 | 36596 ft | 487 kts | 47° |
| 2026-05-04 01:50 | 56.52473 | -94.46649 | 36599 ft | 486 kts | 47° |
| 2026-05-04 01:50 | 56.56915 | -94.37477 | 36617 ft | 483 kts | 47° |
| 2026-05-04 01:51 | 56.61330 | -94.28324 | 36632 ft | 481 kts | 47° |
| 2026-05-04 01:51 | 56.65730 | -94.19168 | 36647 ft | 481 kts | 48° |
| 2026-05-04 01:52 | 56.70140 | -94.09952 | 36652 ft | 484 kts | 48° |
| 2026-05-04 01:52 | 56.74532 | -94.00743 | 36656 ft | 485 kts | 48° |
| 2026-05-04 01:53 | 56.78943 | -93.91454 | 36652 ft | 485 kts | 48° |
| 2026-05-04 01:53 | 56.83347 | -93.82144 | 36655 ft | 483 kts | 48° |
| 2026-05-04 01:54 | 56.87732 | -93.72841 | 36664 ft | 483 kts | 49° |
| 2026-05-04 01:54 | 56.92103 | -93.63528 | 36664 ft | 483 kts | 49° |
| 2026-05-04 01:55 | 56.96446 | -93.54241 | 36659 ft | 482 kts | 49° |
| 2026-05-04 01:55 | 57.00800 | -93.44892 | 36666 ft | 482 kts | 49° |
| 2026-05-04 01:56 | 57.05158 | -93.35497 | 36670 ft | 484 kts | 49° |
| 2026-05-04 01:56 | 57.09517 | -93.26065 | 36670 ft | 485 kts | 49° |
| 2026-05-04 01:57 | 57.13871 | -93.16604 | 36661 ft | 485 kts | 49° |
| 2026-05-04 01:57 | 57.18192 | -93.07178 | 36665 ft | 483 kts | 49° |
| 2026-05-04 01:58 | 57.22516 | -92.97706 | 36668 ft | 482 kts | 49° |
| 2026-05-04 01:58 | 57.26827 | -92.88227 | 36666 ft | 482 kts | 49° |
| 2026-05-04 01:59 | 57.31137 | -92.78712 | 36673 ft | 483 kts | 50° |
| 2026-05-04 01:59 | 57.35443 | -92.69168 | 36669 ft | 484 kts | 50° |
| 2026-05-04 02:00 | 57.39726 | -92.59634 | 36656 ft | 484 kts | 50° |
| 2026-05-04 02:00 | 57.44013 | -92.50055 | 36651 ft | 483 kts | 50° |
| 2026-05-04 02:01 | 57.48308 | -92.40417 | 36652 ft | 483 kts | 50° |
| 2026-05-04 02:01 | 57.52587 | -92.30777 | 36649 ft | 483 kts | 50° |
| 2026-05-04 02:02 | 57.56820 | -92.21203 | 36649 ft | 483 kts | 50° |
| 2026-05-04 02:02 | 57.61098 | -92.11488 | 36656 ft | 484 kts | 51° |
| 2026-05-04 02:03 | 57.65355 | -92.01780 | 36648 ft | 484 kts | 51° |
| 2026-05-04 02:03 | 57.69607 | -91.92043 | 36643 ft | 482 kts | 51° |
| 2026-05-04 02:04 | 57.73795 | -91.82414 | 36642 ft | 480 kts | 51° |
| 2026-05-04 02:04 | 57.77993 | -91.72724 | 36643 ft | 478 kts | 51° |
| 2026-05-04 02:05 | 57.82161 | -91.63060 | 36640 ft | 477 kts | 51° |
| 2026-05-04 02:05 | 57.86331 | -91.53354 | 36639 ft | 478 kts | 51° |
| 2026-05-04 02:06 | 57.90503 | -91.43604 | 36642 ft | 480 kts | 51° |
| 2026-05-04 02:06 | 57.94667 | -91.33834 | 36636 ft | 482 kts | 52° |
| 2026-05-04 02:07 | 57.98855 | -91.23965 | 36624 ft | 481 kts | 52° |
| 2026-05-04 02:07 | 58.03019 | -91.14111 | 36622 ft | 480 kts | 52° |
| 2026-05-04 02:08 | 58.07162 | -91.04267 | 36628 ft | 479 kts | 52° |
| 2026-05-04 02:08 | 58.11301 | -90.94392 | 36628 ft | 478 kts | 52° |
| 2026-05-04 02:09 | 58.15394 | -90.84584 | 36617 ft | 477 kts | 52° |
| 2026-05-04 02:09 | 58.19496 | -90.74715 | 36625 ft | 477 kts | 52° |
| 2026-05-04 02:10 | 58.23605 | -90.64788 | 36622 ft | 478 kts | 52° |
| 2026-05-04 02:10 | 58.27702 | -90.54848 | 36613 ft | 478 kts | 52° |
| 2026-05-04 02:11 | 58.31796 | -90.44873 | 36614 ft | 479 kts | 52° |
| 2026-05-04 02:11 | 58.35864 | -90.34920 | 36609 ft | 479 kts | 52° |
| 2026-05-04 02:12 | 58.39946 | -90.24889 | 36611 ft | 479 kts | 53° |
| 2026-05-04 02:12 | 58.44015 | -90.14850 | 36603 ft | 477 kts | 53° |
| 2026-05-04 02:13 | 58.48034 | -90.04895 | 36601 ft | 475 kts | 53° |
| 2026-05-04 02:13 | 58.52018 | -89.94816 | 36603 ft | 475 kts | 54° |
| 2026-05-04 02:14 | 58.55818 | -89.84444 | 36602 ft | 477 kts | 56° |
| 2026-05-04 02:14 | 58.59595 | -89.73947 | 36603 ft | 479 kts | 56° |
| 2026-05-04 02:15 | 58.63389 | -89.63446 | 36591 ft | 480 kts | 56° |
| 2026-05-04 02:15 | 58.67197 | -89.52929 | 36587 ft | 479 kts | 56° |
| 2026-05-04 02:16 | 58.70972 | -89.42476 | 36591 ft | 478 kts | 56° |
| 2026-05-04 02:16 | 58.74747 | -89.31980 | 36587 ft | 477 kts | 56° |
| 2026-05-04 02:17 | 58.78514 | -89.21452 | 36591 ft | 477 kts | 56° |
| 2026-05-04 02:17 | 58.82272 | -89.10901 | 36590 ft | 479 kts | 56° |
| 2026-05-04 02:18 | 58.86020 | -89.00332 | 36585 ft | 480 kts | 56° |
| 2026-05-04 02:18 | 58.89774 | -88.89697 | 36584 ft | 481 kts | 56° |
| 2026-05-04 02:19 | 58.93541 | -88.78978 | 36579 ft | 480 kts | 56° |
| 2026-05-04 02:19 | 58.97277 | -88.68299 | 36578 ft | 479 kts | 57° |
| 2026-05-04 02:20 | 59.01004 | -88.57598 | 36582 ft | 479 kts | 57° |
| 2026-05-04 02:20 | 59.04708 | -88.46914 | 36578 ft | 480 kts | 57° |
| 2026-05-04 02:21 | 59.08417 | -88.36166 | 36574 ft | 479 kts | 57° |
| 2026-05-04 02:21 | 59.12116 | -88.25398 | 36573 ft | 479 kts | 57° |
| 2026-05-04 02:22 | 59.15810 | -88.14596 | 36575 ft | 480 kts | 57° |
| 2026-05-04 02:22 | 59.19483 | -88.03808 | 36572 ft | 480 kts | 57° |
| 2026-05-04 02:23 | 59.23158 | -87.92961 | 36572 ft | 480 kts | 57° |
| 2026-05-04 02:23 | 59.26829 | -87.82079 | 36568 ft | 479 kts | 57° |
| 2026-05-04 02:24 | 59.30487 | -87.71181 | 36571 ft | 479 kts | 57° |
| 2026-05-04 02:24 | 59.34111 | -87.60339 | 36569 ft | 479 kts | 57° |
| 2026-05-04 02:25 | 59.37746 | -87.49408 | 36568 ft | 479 kts | 58° |
| 2026-05-04 02:25 | 59.41378 | -87.38441 | 36566 ft | 478 kts | 58° |
| 2026-05-04 02:26 | 59.44985 | -87.27494 | 36567 ft | 478 kts | 58° |
| 2026-05-04 02:26 | 59.48568 | -87.16571 | 36569 ft | 478 kts | 58° |
| 2026-05-04 02:27 | 59.52153 | -87.05589 | 36570 ft | 477 kts | 58° |
| 2026-05-04 02:27 | 59.55736 | -86.94565 | 36568 ft | 477 kts | 58° |
| 2026-05-04 02:28 | 59.59284 | -86.83592 | 36569 ft | 477 kts | 58° |
| 2026-05-04 02:28 | 59.62838 | -86.72553 | 36569 ft | 477 kts | 58° |
| 2026-05-04 02:29 | 59.66387 | -86.61476 | 36571 ft | 476 kts | 58° |
| 2026-05-04 02:29 | 59.69921 | -86.50392 | 36573 ft | 476 kts | 58° |
| 2026-05-04 02:30 | 59.73446 | -86.39285 | 36573 ft | 476 kts | 59° |
| 2026-05-04 02:30 | 59.76958 | -86.28165 | 36574 ft | 476 kts | 59° |
| 2026-05-04 02:31 | 59.80436 | -86.17098 | 36577 ft | 476 kts | 59° |
| 2026-05-04 02:31 | 59.83928 | -86.05938 | 36579 ft | 475 kts | 59° |
| 2026-05-04 02:32 | 59.87412 | -85.94747 | 36578 ft | 475 kts | 59° |
| 2026-05-04 02:32 | 59.90858 | -85.83623 | 36581 ft | 475 kts | 59° |
| 2026-05-04 02:33 | 59.94310 | -85.72429 | 36580 ft | 475 kts | 59° |
| 2026-05-04 02:33 | 59.97761 | -85.61183 | 36585 ft | 474 kts | 59° |
| 2026-05-04 02:34 | 60.01196 | -85.49935 | 36587 ft | 474 kts | 59° |
| 2026-05-04 02:34 | 60.04591 | -85.38764 | 36590 ft | 474 kts | 59° |
| 2026-05-04 02:35 | 60.08001 | -85.27486 | 36594 ft | 474 kts | 60° |
| 2026-05-04 02:35 | 60.11408 | -85.16166 | 36596 ft | 473 kts | 60° |
| 2026-05-04 02:36 | 60.14796 | -85.04856 | 36596 ft | 473 kts | 60° |
| 2026-05-04 02:36 | 60.18172 | -84.93527 | 36599 ft | 473 kts | 60° |
| 2026-05-04 02:37 | 60.21521 | -84.82232 | 36600 ft | 473 kts | 60° |
| 2026-05-04 02:37 | 60.24874 | -84.70869 | 36608 ft | 472 kts | 60° |
| 2026-05-04 02:38 | 60.28220 | -84.59476 | 36612 ft | 472 kts | 60° |
| 2026-05-04 02:38 | 60.31559 | -84.48048 | 36611 ft | 472 kts | 60° |
| 2026-05-04 02:39 | 60.34862 | -84.36686 | 36616 ft | 472 kts | 60° |
| 2026-05-04 02:39 | 60.38174 | -84.25236 | 36620 ft | 472 kts | 61° |
| 2026-05-04 02:40 | 60.41475 | -84.13769 | 36619 ft | 472 kts | 61° |
| 2026-05-04 02:40 | 60.44751 | -84.02331 | 36626 ft | 472 kts | 61° |
| 2026-05-04 02:41 | 60.48028 | -83.90829 | 36629 ft | 472 kts | 61° |
| 2026-05-04 02:41 | 60.51300 | -83.79289 | 36629 ft | 472 kts | 61° |
| 2026-05-04 02:42 | 60.54559 | -83.67737 | 36637 ft | 471 kts | 62° |
| 2026-05-04 02:42 | 60.57812 | -83.56149 | 36640 ft | 471 kts | 62° |
| 2026-05-04 02:43 | 60.61045 | -83.44571 | 36640 ft | 471 kts | 62° |
| 2026-05-04 02:43 | 60.64256 | -83.33012 | 36645 ft | 471 kts | 62° |
| 2026-05-04 02:44 | 60.67472 | -83.21377 | 36649 ft | 471 kts | 62° |
| 2026-05-04 02:44 | 60.70678 | -83.09718 | 36657 ft | 471 kts | 62° |
| 2026-05-04 02:45 | 60.73880 | -82.98012 | 36662 ft | 471 kts | 62° |
| 2026-05-04 02:45 | 60.77045 | -82.86386 | 36663 ft | 471 kts | 62° |
| 2026-05-04 02:46 | 60.80218 | -82.74664 | 36662 ft | 471 kts | 63° |
| 2026-05-04 02:46 | 60.83379 | -82.62929 | 36672 ft | 471 kts | 63° |
| 2026-05-04 02:47 | 60.86531 | -82.51163 | 36674 ft | 471 kts | 63° |
| 2026-05-04 02:47 | 60.89679 | -82.39356 | 36677 ft | 471 kts | 63° |
| 2026-05-04 02:48 | 60.92807 | -82.27558 | 36681 ft | 471 kts | 63° |
| 2026-05-04 02:48 | 60.95935 | -82.15697 | 36685 ft | 471 kts | 63° |
| 2026-05-04 02:49 | 60.99048 | -82.03831 | 36687 ft | 471 kts | 63° |
| 2026-05-04 02:49 | 61.02152 | -81.91937 | 36691 ft | 471 kts | 64° |
| 2026-05-04 02:50 | 61.05243 | -81.80031 | 36695 ft | 471 kts | 64° |
| 2026-05-04 02:50 | 61.08321 | -81.68107 | 36697 ft | 471 kts | 64° |
| 2026-05-04 02:51 | 61.11395 | -81.56137 | 36700 ft | 471 kts | 64° |
| 2026-05-04 02:51 | 61.14459 | -81.44143 | 36706 ft | 471 kts | 64° |
| 2026-05-04 02:52 | 61.17506 | -81.32148 | 36710 ft | 471 kts | 64° |
| 2026-05-04 02:52 | 61.20549 | -81.20106 | 36716 ft | 471 kts | 64° |
| 2026-05-04 02:53 | 61.23576 | -81.08059 | 36716 ft | 471 kts | 64° |
| 2026-05-04 02:53 | 61.26570 | -80.96080 | 36716 ft | 471 kts | 65° |
| 2026-05-04 02:54 | 61.29574 | -80.83997 | 36731 ft | 471 kts | 65° |
| 2026-05-04 02:54 | 61.32570 | -80.71877 | 36734 ft | 471 kts | 65° |
| 2026-05-04 02:55 | 61.37043 | -80.53655 | 36732 ft | 470 kts | 65° |
| 2026-05-04 02:56 | 61.40004 | -80.41512 | 36731 ft | 470 kts | 65° |
| 2026-05-04 02:56 | 61.42953 | -80.29348 | 36730 ft | 470 kts | 65° |
| 2026-05-04 02:57 | 61.45897 | -80.17136 | 36738 ft | 470 kts | 65° |
| 2026-05-04 02:57 | 61.48826 | -80.04927 | 36742 ft | 470 kts | 66° |
| 2026-05-04 02:58 | 61.51765 | -79.92719 | 36742 ft | 469 kts | 65° |
| 2026-05-04 02:58 | 61.54247 | -79.82613 | 36745 ft | 469 kts | 65° |
| 2026-05-04 02:59 | 61.57232 | -79.70452 | 36750 ft | 469 kts | 65° |
| 2026-05-04 02:59 | 61.60203 | -79.58248 | 36751 ft | 469 kts | 65° |
| 2026-05-04 03:00 | 61.63154 | -79.46028 | 36755 ft | 469 kts | 65° |
| 2026-05-04 03:00 | 61.66092 | -79.33782 | 36755 ft | 469 kts | 65° |
| 2026-05-04 03:01 | 61.69021 | -79.21509 | 36758 ft | 468 kts | 66° |
| 2026-05-04 03:01 | 61.71933 | -79.09236 | 36763 ft | 468 kts | 66° |
| 2026-05-04 03:02 | 61.74831 | -78.96955 | 36762 ft | 468 kts | 66° |
| 2026-05-04 03:02 | 61.77723 | -78.84628 | 36759 ft | 468 kts | 66° |
| 2026-05-04 03:03 | 61.80595 | -78.72316 | 36767 ft | 468 kts | 66° |
| 2026-05-04 03:03 | 61.83461 | -78.59959 | 36771 ft | 468 kts | 66° |
| 2026-05-04 03:04 | 61.86320 | -78.47559 | 36771 ft | 468 kts | 66° |
| 2026-05-04 03:04 | 61.89168 | -78.35140 | 36771 ft | 468 kts | 66° |
| 2026-05-04 03:05 | 61.92001 | -78.22712 | 36767 ft | 468 kts | 66° |
| 2026-05-04 03:05 | 61.94829 | -78.10235 | 36771 ft | 468 kts | 67° |
| 2026-05-04 03:06 | 61.97640 | -77.97760 | 36778 ft | 469 kts | 67° |
| 2026-05-04 03:06 | 62.00445 | -77.85235 | 36778 ft | 468 kts | 67° |
| 2026-05-04 03:07 | 62.03232 | -77.72721 | 36784 ft | 468 kts | 67° |
| 2026-05-04 03:07 | 62.06013 | -77.60161 | 36782 ft | 468 kts | 67° |
| 2026-05-04 03:08 | 62.08780 | -77.47587 | 36778 ft | 468 kts | 68° |
| 2026-05-04 03:08 | 62.11533 | -77.35001 | 36792 ft | 468 kts | 68° |
| 2026-05-04 03:09 | 62.14279 | -77.22370 | 36794 ft | 468 kts | 68° |
| 2026-05-04 03:09 | 62.17011 | -77.09731 | 36778 ft | 468 kts | 68° |
| 2026-05-04 03:10 | 62.19712 | -76.97161 | 36800 ft | 468 kts | 68° |
| 2026-05-04 03:10 | 62.22441 | -76.84383 | 36797 ft | 468 kts | 68° |
| 2026-05-04 03:11 | 62.25116 | -76.71780 | 36803 ft | 468 kts | 68° |
| 2026-05-04 03:11 | 62.27798 | -76.59067 | 36798 ft | 468 kts | 68° |
| 2026-05-04 03:12 | 62.30475 | -76.46299 | 36806 ft | 468 kts | 69° |
| 2026-05-04 03:12 | 62.33128 | -76.33567 | 36807 ft | 467 kts | 69° |
| 2026-05-04 03:13 | 62.35774 | -76.20796 | 36806 ft | 467 kts | 69° |
| 2026-05-04 03:13 | 62.38409 | -76.07991 | 36809 ft | 467 kts | 69° |
| 2026-05-04 03:14 | 62.41028 | -75.95190 | 36812 ft | 466 kts | 69° |
| 2026-05-04 03:14 | 62.43631 | -75.82381 | 36816 ft | 466 kts | 69° |
| 2026-05-04 03:15 | 62.46225 | -75.69541 | 36816 ft | 466 kts | 69° |
| 2026-05-04 03:15 | 62.48806 | -75.56682 | 36820 ft | 466 kts | 69° |
| 2026-05-04 03:16 | 62.51379 | -75.43785 | 36820 ft | 466 kts | 70° |
| 2026-05-04 03:16 | 62.53932 | -75.30909 | 36823 ft | 466 kts | 70° |
| 2026-05-04 03:17 | 62.56474 | -75.17997 | 36825 ft | 466 kts | 70° |
| 2026-05-04 03:17 | 62.59006 | -75.05063 | 36831 ft | 465 kts | 70° |
| 2026-05-04 03:18 | 62.61523 | -74.92119 | 36835 ft | 465 kts | 70° |
| 2026-05-04 03:18 | 62.64023 | -74.79176 | 36837 ft | 465 kts | 70° |
| 2026-05-04 03:19 | 62.66519 | -74.66173 | 36840 ft | 465 kts | 70° |
| 2026-05-04 03:19 | 62.68977 | -74.53282 | 36847 ft | 465 kts | 70° |
| 2026-05-04 03:20 | 62.71444 | -74.40263 | 36849 ft | 465 kts | 70° |
| 2026-05-04 03:20 | 62.73895 | -74.27239 | 36852 ft | 464 kts | 71° |
| 2026-05-04 03:21 | 62.76339 | -74.14173 | 36856 ft | 464 kts | 71° |
| 2026-05-04 03:21 | 62.78765 | -74.01109 | 36859 ft | 464 kts | 71° |
| 2026-05-04 03:22 | 62.81179 | -73.88027 | 36862 ft | 464 kts | 71° |
| 2026-05-04 03:22 | 62.83586 | -73.74892 | 36862 ft | 464 kts | 71° |
| 2026-05-04 03:23 | 62.85974 | -73.61778 | 36865 ft | 464 kts | 71° |
| 2026-05-04 03:23 | 62.88339 | -73.48701 | 36869 ft | 465 kts | 71° |
| 2026-05-04 03:24 | 62.90722 | -73.35430 | 36868 ft | 465 kts | 71° |
| 2026-05-04 03:24 | 62.93062 | -73.22318 | 36873 ft | 464 kts | 72° |
| 2026-05-04 03:25 | 62.95406 | -73.09087 | 36878 ft | 464 kts | 72° |
| 2026-05-04 03:25 | 62.97734 | -72.95852 | 36875 ft | 465 kts | 72° |
| 2026-05-04 03:26 | 63.00055 | -72.82574 | 36884 ft | 465 kts | 72° |
| 2026-05-04 03:26 | 63.02366 | -72.69254 | 36881 ft | 465 kts | 72° |
| 2026-05-04 03:27 | 63.04658 | -72.55951 | 36891 ft | 465 kts | 72° |
| 2026-05-04 03:27 | 63.06944 | -72.42591 | 36880 ft | 465 kts | 72° |
| 2026-05-04 03:28 | 63.09212 | -72.29246 | 36894 ft | 464 kts | 72° |
| 2026-05-04 03:28 | 63.11467 | -72.15879 | 36897 ft | 465 kts | 72° |
| 2026-05-04 03:29 | 63.13709 | -72.02493 | 36895 ft | 464 kts | 73° |
| 2026-05-04 03:29 | 63.15939 | -71.89078 | 36892 ft | 464 kts | 73° |
| 2026-05-04 03:30 | 63.18154 | -71.75663 | 36898 ft | 465 kts | 73° |
| 2026-05-04 03:30 | 63.20346 | -71.62286 | 36897 ft | 465 kts | 73° |
| 2026-05-04 03:31 | 63.22542 | -71.48792 | 36898 ft | 465 kts | 73° |
| 2026-05-04 03:31 | 63.24725 | -71.35281 | 36901 ft | 466 kts | 73° |
| 2026-05-04 03:32 | 63.26896 | -71.21737 | 36904 ft | 466 kts | 73° |
| 2026-05-04 03:32 | 63.29058 | -71.08148 | 36908 ft | 466 kts | 73° |
| 2026-05-04 03:33 | 63.31202 | -70.94574 | 36911 ft | 466 kts | 73° |
| 2026-05-04 03:33 | 63.33342 | -70.80924 | 36916 ft | 467 kts | 74° |
| 2026-05-04 03:34 | 63.35465 | -70.67278 | 36916 ft | 467 kts | 74° |
| 2026-05-04 03:34 | 63.37580 | -70.53578 | 36917 ft | 467 kts | 74° |
| 2026-05-04 03:35 | 63.39680 | -70.39870 | 36923 ft | 467 kts | 74° |
| 2026-05-04 03:35 | 63.41768 | -70.26138 | 36921 ft | 467 kts | 74° |
| 2026-05-04 03:36 | 63.43841 | -70.12397 | 36938 ft | 467 kts | 74° |
| 2026-05-04 03:36 | 63.45901 | -69.98629 | 36937 ft | 467 kts | 75° |
| 2026-05-04 03:37 | 63.47946 | -69.84854 | 36950 ft | 467 kts | 75° |
| 2026-05-04 03:37 | 63.49984 | -69.71023 | 36961 ft | 467 kts | 75° |
| 2026-05-04 03:38 | 63.52006 | -69.57185 | 36969 ft | 467 kts | 75° |
| 2026-05-04 03:38 | 63.54015 | -69.43330 | 36983 ft | 468 kts | 75° |
| 2026-05-04 03:39 | 63.56014 | -69.29426 | 36992 ft | 468 kts | 75° |
| 2026-05-04 03:39 | 63.57995 | -69.15547 | 37016 ft | 468 kts | 75° |
| 2026-05-04 03:40 | 63.59968 | -69.01599 | 37020 ft | 468 kts | 75° |
| 2026-05-04 03:40 | 63.61925 | -68.87648 | 37032 ft | 468 kts | 75° |
| 2026-05-04 03:41 | 63.63871 | -68.73659 | 37032 ft | 469 kts | 76° |
| 2026-05-04 03:41 | 63.65794 | -68.59730 | 37034 ft | 469 kts | 76° |
| 2026-05-04 03:42 | 63.67728 | -68.45596 | 37035 ft | 469 kts | 76° |
| 2026-05-04 03:42 | 63.69636 | -68.31531 | 37034 ft | 470 kts | 76° |
| 2026-05-04 03:43 | 63.71516 | -68.17553 | 37045 ft | 470 kts | 76° |
| 2026-05-04 03:43 | 63.73402 | -68.03410 | 37027 ft | 469 kts | 76° |
| 2026-05-04 03:44 | 63.75266 | -67.89319 | 37037 ft | 468 kts | 77° |
| 2026-05-04 03:44 | 63.77111 | -67.75235 | 37040 ft | 467 kts | 77° |
| 2026-05-04 03:45 | 63.78939 | -67.61173 | 37035 ft | 467 kts | 77° |
| 2026-05-04 03:45 | 63.80754 | -67.47077 | 37049 ft | 466 kts | 77° |
| 2026-05-04 03:46 | 63.82552 | -67.32981 | 37049 ft | 465 kts | 77° |
| 2026-05-04 03:46 | 63.84335 | -67.18896 | 37061 ft | 464 kts | 78° |
| 2026-05-04 03:47 | 63.86098 | -67.04862 | 37079 ft | 462 kts | 78° |
| 2026-05-04 03:47 | 63.88345 | -66.91142 | 37097 ft | 467 kts | 70° |
| 2026-05-04 03:48 | 63.91041 | -66.77611 | 37098 ft | 472 kts | 69° |
| 2026-05-04 03:48 | 63.93307 | -66.66263 | 37111 ft | 476 kts | 69° |
| 2026-05-04 03:49 | 63.96004 | -66.52536 | 37097 ft | 476 kts | 70° |
| 2026-05-04 03:49 | 63.98668 | -66.38786 | 37121 ft | 473 kts | 70° |
| 2026-05-04 03:50 | 64.01718 | -66.22883 | 37130 ft | 470 kts | 70° |
| 2026-05-04 03:50 | 64.03902 | -66.11398 | 37155 ft | 471 kts | 70° |
| 2026-05-04 03:51 | 64.06492 | -65.97698 | 37184 ft | 474 kts | 71° |
| 2026-05-04 03:51 | 64.09114 | -65.83753 | 37195 ft | 477 kts | 70° |
| 2026-05-04 03:52 | 64.11723 | -65.69778 | 37220 ft | 478 kts | 70° |
| 2026-05-04 03:52 | 64.14319 | -65.55775 | 37238 ft | 477 kts | 70° |
| 2026-05-04 03:53 | 64.16880 | -65.41872 | 37258 ft | 476 kts | 70° |
| 2026-05-04 03:53 | 64.19439 | -65.27871 | 37266 ft | 475 kts | 70° |
| 2026-05-04 03:54 | 64.21981 | -65.13863 | 37259 ft | 475 kts | 70° |
| 2026-05-04 03:54 | 64.24514 | -64.99802 | 37260 ft | 476 kts | 70° |
| 2026-05-04 03:55 | 64.27035 | -64.85710 | 37247 ft | 477 kts | 70° |
| 2026-05-04 03:55 | 64.29545 | -64.71588 | 37229 ft | 476 kts | 71° |
| 2026-05-04 03:56 | 64.32043 | -64.57424 | 37219 ft | 477 kts | 71° |
| 2026-05-04 03:56 | 64.34528 | -64.43233 | 37199 ft | 477 kts | 72° |
| 2026-05-04 03:57 | 64.36997 | -64.29017 | 37184 ft | 477 kts | 71° |
| 2026-05-04 03:57 | 64.39452 | -64.14787 | 37173 ft | 477 kts | 72° |
| 2026-05-04 03:58 | 64.43114 | -63.93352 | 37165 ft | 477 kts | 72° |
| 2026-05-04 03:58 | 64.45535 | -63.79050 | 37166 ft | 477 kts | 72° |
| 2026-05-04 03:59 | 64.47944 | -63.64716 | 37167 ft | 477 kts | 72° |
| 2026-05-04 03:59 | 64.50324 | -63.50445 | 37173 ft | 477 kts | 72° |
| 2026-05-04 04:00 | 64.52722 | -63.35959 | 37182 ft | 478 kts | 72° |
| 2026-05-04 04:00 | 64.55075 | -63.21621 | 37175 ft | 478 kts | 72° |
| 2026-05-04 04:01 | 64.57433 | -63.07162 | 37184 ft | 478 kts | 72° |
| 2026-05-04 04:01 | 64.59778 | -62.92665 | 37187 ft | 478 kts | 72° |
| 2026-05-04 04:02 | 64.62105 | -62.78159 | 37185 ft | 478 kts | 73° |
| 2026-05-04 04:02 | 64.64418 | -62.63630 | 37190 ft | 478 kts | 73° |
| 2026-05-04 04:03 | 64.66714 | -62.49101 | 37195 ft | 477 kts | 72° |
| 2026-05-04 04:03 | 64.68995 | -62.34549 | 37211 ft | 478 kts | 72° |
| 2026-05-04 04:04 | 64.71272 | -62.19893 | 37204 ft | 480 kts | 73° |
| 2026-05-04 04:04 | 64.73543 | -62.05159 | 37218 ft | 483 kts | 73° |
| 2026-05-04 04:05 | 64.75816 | -61.90297 | 37219 ft | 486 kts | 73° |
| 2026-05-04 04:05 | 64.78086 | -61.75345 | 37203 ft | 486 kts | 73° |
| 2026-05-04 04:06 | 64.80327 | -61.60452 | 37212 ft | 483 kts | 73° |
| 2026-05-04 04:06 | 64.82544 | -61.45598 | 37215 ft | 483 kts | 73° |
| 2026-05-04 04:07 | 64.84755 | -61.30655 | 37214 ft | 484 kts | 73° |
| 2026-05-04 04:07 | 64.86953 | -61.15664 | 37220 ft | 486 kts | 73° |
| 2026-05-04 04:08 | 64.89142 | -61.00614 | 37219 ft | 488 kts | 73° |
| 2026-05-04 04:08 | 64.91335 | -60.85407 | 37231 ft | 492 kts | 73° |
| 2026-05-04 04:09 | 64.93529 | -60.70054 | 37223 ft | 497 kts | 74° |
| 2026-05-04 04:09 | 64.95728 | -60.54534 | 37238 ft | 506 kts | 74° |
| 2026-05-04 04:10 | 64.97952 | -60.38697 | 37213 ft | 505 kts | 74° |
| 2026-05-04 04:10 | 65.00130 | -60.23046 | 37226 ft | 502 kts | 74° |
| 2026-05-04 04:11 | 65.02317 | -60.07194 | 37231 ft | 512 kts | 74° |
| 2026-05-04 04:11 | 65.04500 | -59.91157 | 37209 ft | 506 kts | 74° |
| 2026-05-04 04:12 | 65.06588 | -59.75447 | 37218 ft | 498 kts | 75° |
| 2026-05-04 04:12 | 65.08641 | -59.59791 | 37228 ft | 496 kts | 75° |
| 2026-05-04 04:13 | 65.10675 | -59.44165 | 37229 ft | 496 kts | 75° |
| 2026-05-04 04:13 | 65.12700 | -59.28494 | 37237 ft | 497 kts | 75° |
| 2026-05-04 04:14 | 65.14717 | -59.12745 | 37231 ft | 499 kts | 75° |
| 2026-05-04 04:14 | 65.16726 | -58.96902 | 37239 ft | 502 kts | 75° |
| 2026-05-04 04:15 | 65.18736 | -58.80876 | 37238 ft | 510 kts | 75° |
| 2026-05-04 04:15 | 65.20766 | -58.64532 | 37233 ft | 518 kts | 75° |
| 2026-05-04 04:16 | 65.22796 | -58.48044 | 37220 ft | 518 kts | 75° |
| 2026-05-04 04:16 | 65.24790 | -58.31668 | 37215 ft | 511 kts | 75° |
| 2026-05-04 04:17 | 65.26746 | -58.15427 | 37220 ft | 515 kts | 75° |
| 2026-05-04 04:17 | 65.28702 | -57.98998 | 37216 ft | 514 kts | 75° |
| 2026-05-04 04:18 | 65.30653 | -57.82446 | 37213 ft | 515 kts | 75° |
| 2026-05-04 04:18 | 65.32570 | -57.66008 | 37211 ft | 513 kts | 75° |
| 2026-05-04 04:19 | 65.34440 | -57.49814 | 37191 ft | 498 kts | 75° |
| 2026-05-04 04:19 | 65.36247 | -57.33990 | 37191 ft | 489 kts | 75° |
| 2026-05-04 04:20 | 65.38031 | -57.18189 | 37226 ft | 495 kts | 76° |
| 2026-05-04 04:20 | 65.39835 | -57.02044 | 37227 ft | 507 kts | 76° |
| 2026-05-04 04:21 | 65.41665 | -56.85480 | 37202 ft | 517 kts | 76° |
| 2026-05-04 04:21 | 65.43483 | -56.68854 | 37183 ft | 509 kts | 76° |
| 2026-05-04 04:22 | 65.45247 | -56.52528 | 37180 ft | 500 kts | 76° |
| 2026-05-04 04:22 | 65.46970 | -56.36403 | 37191 ft | 498 kts | 76° |
| 2026-05-04 04:23 | 65.48685 | -56.20163 | 37180 ft | 504 kts | 76° |
| 2026-05-04 04:23 | 65.50405 | -56.03685 | 37185 ft | 508 kts | 76° |
| 2026-05-04 04:24 | 65.52099 | -55.87271 | 37173 ft | 503 kts | 76° |
| 2026-05-04 04:24 | 65.53768 | -55.70902 | 37176 ft | 502 kts | 76° |
| 2026-05-04 04:25 | 65.55411 | -55.54594 | 37170 ft | 504 kts | 76° |
| 2026-05-04 04:25 | 65.57052 | -55.38116 | 37167 ft | 506 kts | 77° |
| 2026-05-04 04:26 | 65.58688 | -55.21482 | 37173 ft | 506 kts | 77° |
| 2026-05-04 04:26 | 65.60285 | -55.05039 | 37179 ft | 506 kts | 77° |
| 2026-05-04 04:27 | 65.61879 | -54.88434 | 37156 ft | 507 kts | 77° |
| 2026-05-04 04:27 | 65.63468 | -54.71657 | 37173 ft | 508 kts | 77° |
| 2026-05-04 04:28 | 65.65018 | -54.55084 | 37151 ft | 508 kts | 77° |
| 2026-05-04 04:28 | 65.66563 | -54.38346 | 37151 ft | 509 kts | 77° |
| 2026-05-04 04:29 | 65.68101 | -54.21464 | 37164 ft | 510 kts | 77° |
| 2026-05-04 04:29 | 65.69613 | -54.04643 | 37146 ft | 511 kts | 77° |
| 2026-05-04 04:30 | 65.71102 | -53.87855 | 37144 ft | 512 kts | 78° |
| 2026-05-04 04:30 | 65.72582 | -53.70946 | 37153 ft | 513 kts | 78° |
| 2026-05-04 04:31 | 65.74045 | -53.53995 | 37137 ft | 513 kts | 78° |
| 2026-05-04 04:31 | 65.75491 | -53.36993 | 37153 ft | 513 kts | 78° |
| 2026-05-04 04:32 | 65.76918 | -53.19984 | 37157 ft | 513 kts | 78° |
| 2026-05-04 04:32 | 65.78328 | -53.02920 | 37163 ft | 515 kts | 78° |
| 2026-05-04 04:33 | 65.79726 | -52.85764 | 37160 ft | 516 kts | 78° |
| 2026-05-04 04:33 | 65.81102 | -52.68620 | 37144 ft | 517 kts | 78° |
| 2026-05-04 04:34 | 65.82465 | -52.51393 | 37146 ft | 517 kts | 78° |
| 2026-05-04 04:34 | 65.83807 | -52.34136 | 37143 ft | 517 kts | 79° |
| 2026-05-04 04:35 | 65.85128 | -52.16892 | 37159 ft | 518 kts | 79° |
| 2026-05-04 04:35 | 65.86436 | -51.99552 | 37167 ft | 519 kts | 79° |
| 2026-05-04 04:36 | 65.87715 | -51.82333 | 37185 ft | 520 kts | 79° |
| 2026-05-04 04:36 | 65.88987 | -51.64918 | 37172 ft | 520 kts | 79° |
| 2026-05-04 04:37 | 65.91475 | -51.29980 | 37173 ft | 522 kts | 79° |
| 2026-05-04 04:38 | 65.92693 | -51.12447 | 37173 ft | 523 kts | 79° |
| 2026-05-04 04:38 | 65.93893 | -50.94853 | 37187 ft | 524 kts | 79° |
| 2026-05-04 04:39 | 65.95073 | -50.77242 | 37192 ft | 524 kts | 79° |
| 2026-05-04 04:39 | 65.96234 | -50.59597 | 37200 ft | 524 kts | 80° |
| 2026-05-04 04:40 | 65.97191 | -50.44811 | 37201 ft | 524 kts | 80° |
| 2026-05-04 04:40 | 65.98307 | -50.27260 | 37211 ft | 525 kts | 80° |
| 2026-05-04 04:41 | 65.99419 | -50.09494 | 37207 ft | 526 kts | 80° |
| 2026-05-04 04:41 | 65.99972 | -49.91622 | 37202 ft | 527 kts | 92° |
| 2026-05-04 04:42 | 65.99627 | -49.73632 | 37199 ft | 527 kts | 94° |
| 2026-05-04 04:42 | 65.99205 | -49.55651 | 37189 ft | 527 kts | 94° |
| 2026-05-04 04:43 | 65.98807 | -49.37696 | 37192 ft | 527 kts | 93° |
| 2026-05-04 04:43 | 65.98419 | -49.19694 | 37183 ft | 528 kts | 93° |
| 2026-05-04 04:44 | 65.98018 | -49.01647 | 37175 ft | 529 kts | 93° |
| 2026-05-04 04:44 | 65.97592 | -48.83625 | 37172 ft | 529 kts | 94° |
| 2026-05-04 04:45 | 65.97143 | -48.65596 | 37170 ft | 530 kts | 94° |
| 2026-05-04 04:47 | 65.95400 | -48.02478 | 37160 ft | 530 kts | 94° |
| 2026-05-04 04:47 | 65.94854 | -47.84438 | 37158 ft | 530 kts | 94° |
| 2026-05-04 04:48 | 65.94291 | -47.66535 | 37162 ft | 531 kts | 95° |
| 2026-05-04 04:49 | 65.92776 | -47.21348 | 37153 ft | 533 kts | 95° |
| 2026-05-04 04:49 | 65.92132 | -47.03273 | 37150 ft | 533 kts | 95° |
| 2026-05-04 04:50 | 65.91467 | -46.85207 | 37144 ft | 532 kts | 95° |
| 2026-05-04 04:50 | 65.90782 | -46.67177 | 37144 ft | 532 kts | 95° |
| 2026-05-04 04:51 | 65.90076 | -46.49164 | 37150 ft | 532 kts | 96° |
| 2026-05-04 04:51 | 65.89348 | -46.31143 | 37141 ft | 532 kts | 96° |
| 2026-05-04 04:52 | 65.88598 | -46.13090 | 37137 ft | 533 kts | 96° |
| 2026-05-04 04:52 | 65.87827 | -45.95087 | 37138 ft | 533 kts | 96° |
| 2026-05-04 04:53 | 65.87035 | -45.77064 | 37139 ft | 533 kts | 96° |
| 2026-05-04 04:53 | 65.86221 | -45.59046 | 37129 ft | 533 kts | 96° |
| 2026-05-04 04:54 | 65.85393 | -45.41190 | 37130 ft | 532 kts | 96° |
| 2026-05-04 04:54 | 65.84533 | -45.23113 | 37136 ft | 533 kts | 97° |
| 2026-05-04 04:55 | 65.83663 | -45.05279 | 37121 ft | 533 kts | 97° |
| 2026-05-04 04:55 | 65.82761 | -44.87244 | 37123 ft | 532 kts | 97° |
| 2026-05-04 04:56 | 65.81850 | -44.69453 | 37125 ft | 531 kts | 97° |
| 2026-05-04 04:56 | 65.80914 | -44.51578 | 37130 ft | 531 kts | 97° |
| 2026-05-04 04:57 | 65.79960 | -44.33769 | 37116 ft | 531 kts | 98° |
| 2026-05-04 04:57 | 65.78982 | -44.15936 | 37109 ft | 530 kts | 98° |
| 2026-05-04 04:58 | 65.77988 | -43.98174 | 37103 ft | 530 kts | 98° |
| 2026-05-04 04:58 | 65.76973 | -43.80429 | 37101 ft | 529 kts | 98° |
| 2026-05-04 04:59 | 65.75939 | -43.62726 | 37092 ft | 527 kts | 99° |
| 2026-05-04 04:59 | 65.74888 | -43.45085 | 37104 ft | 527 kts | 99° |
| 2026-05-04 05:00 | 65.73814 | -43.27434 | 37104 ft | 528 kts | 99° |
| 2026-05-04 05:01 | 65.72165 | -43.00970 | 37113 ft | 529 kts | 99° |
| 2026-05-04 05:01 | 65.71039 | -42.83323 | 37112 ft | 529 kts | 99° |
| 2026-05-04 05:02 | 65.69890 | -42.65663 | 37120 ft | 530 kts | 100° |
| 2026-05-04 05:02 | 65.68718 | -42.47979 | 37116 ft | 531 kts | 100° |
| 2026-05-04 05:03 | 65.67523 | -42.30265 | 37131 ft | 532 kts | 100° |
| 2026-05-04 05:04 | 65.65069 | -41.94855 | 37110 ft | 533 kts | 101° |
| 2026-05-04 05:04 | 65.63809 | -41.77156 | 37136 ft | 533 kts | 101° |
| 2026-05-04 05:06 | 65.58558 | -41.06419 | 37178 ft | 536 kts | 101° |
| 2026-05-04 05:07 | 65.57187 | -40.88689 | 37189 ft | 537 kts | 101° |
| 2026-05-04 05:07 | 65.55794 | -40.70961 | 37193 ft | 538 kts | 101° |
| 2026-05-04 05:09 | 65.49114 | -39.91293 | 37190 ft | 540 kts | 105° |
| 2026-05-04 05:10 | 65.47162 | -39.73817 | 37193 ft | 540 kts | 106° |
| 2026-05-04 05:10 | 65.45159 | -39.56402 | 37191 ft | 540 kts | 106° |
| 2026-05-04 05:11 | 65.43162 | -39.39006 | 37184 ft | 540 kts | 106° |
| 2026-05-04 05:11 | 65.41164 | -39.21611 | 37184 ft | 541 kts | 106° |
| 2026-05-04 05:12 | 65.39147 | -39.04218 | 37181 ft | 540 kts | 106° |
| 2026-05-04 05:12 | 65.37113 | -38.86892 | 37174 ft | 539 kts | 106° |
| 2026-05-04 05:13 | 65.35078 | -38.69767 | 37181 ft | 538 kts | 106° |
| 2026-05-04 05:13 | 65.33006 | -38.52520 | 37179 ft | 539 kts | 106° |
| 2026-05-04 05:14 | 65.30914 | -38.35306 | 37174 ft | 539 kts | 106° |
| 2026-05-04 05:14 | 65.28804 | -38.18130 | 37176 ft | 539 kts | 106° |
| 2026-05-04 05:15 | 65.26672 | -38.00951 | 37181 ft | 539 kts | 107° |
| 2026-05-04 05:15 | 65.24520 | -37.83809 | 37177 ft | 538 kts | 107° |
| 2026-05-04 05:16 | 65.22356 | -37.66745 | 37182 ft | 538 kts | 107° |
| 2026-05-04 05:16 | 65.20170 | -37.49694 | 37179 ft | 538 kts | 107° |
| 2026-05-04 05:17 | 65.17962 | -37.32648 | 37181 ft | 538 kts | 107° |
| 2026-05-04 05:17 | 65.15740 | -37.15666 | 37178 ft | 537 kts | 107° |
| 2026-05-04 05:18 | 65.13513 | -36.98829 | 37183 ft | 537 kts | 107° |
| 2026-05-04 05:18 | 65.11253 | -36.81905 | 37177 ft | 537 kts | 108° |
| 2026-05-04 05:19 | 65.08960 | -36.64914 | 37174 ft | 536 kts | 108° |
| 2026-05-04 05:19 | 65.06672 | -36.48124 | 37182 ft | 536 kts | 108° |
| 2026-05-04 05:20 | 65.04358 | -36.31318 | 37181 ft | 536 kts | 108° |
| 2026-05-04 05:20 | 65.02048 | -36.14695 | 37172 ft | 536 kts | 108° |
| 2026-05-04 05:21 | 64.99697 | -35.97947 | 37177 ft | 536 kts | 108° |
| 2026-05-04 05:21 | 64.97334 | -35.81277 | 37174 ft | 535 kts | 108° |
| 2026-05-04 05:22 | 64.94955 | -35.64650 | 37172 ft | 534 kts | 108° |
| 2026-05-04 05:22 | 64.92561 | -35.48076 | 37166 ft | 534 kts | 109° |
| 2026-05-04 05:23 | 64.90145 | -35.31515 | 37170 ft | 534 kts | 109° |
| 2026-05-04 05:23 | 64.87717 | -35.15015 | 37162 ft | 534 kts | 109° |
| 2026-05-04 05:24 | 64.85264 | -34.98510 | 37162 ft | 534 kts | 109° |
| 2026-05-04 05:24 | 64.82801 | -34.82084 | 37152 ft | 533 kts | 109° |
| 2026-05-04 05:25 | 64.80322 | -34.65703 | 37154 ft | 532 kts | 109° |
| 2026-05-04 05:25 | 64.77823 | -34.49341 | 37150 ft | 532 kts | 109° |
| 2026-05-04 05:26 | 64.75327 | -34.33147 | 37148 ft | 532 kts | 110° |
| 2026-05-04 05:26 | 64.72799 | -34.16887 | 37141 ft | 531 kts | 110° |
| 2026-05-04 05:28 | 64.62536 | -33.52320 | 37126 ft | 529 kts | 110° |
| 2026-05-04 05:29 | 64.59936 | -33.36309 | 37127 ft | 529 kts | 111° |
| 2026-05-04 05:29 | 64.57310 | -33.20280 | 37121 ft | 529 kts | 111° |
| 2026-05-04 05:31 | 64.48070 | -32.64932 | 37104 ft | 517 kts | 112° |
| 2026-05-04 05:31 | 64.46751 | -32.57166 | 37107 ft | 517 kts | 112° |
| 2026-05-04 05:32 | 64.44551 | -32.44278 | 37104 ft | 518 kts | 112° |
| 2026-05-04 05:33 | 64.40543 | -32.21019 | 37096 ft | 519 kts | 112° |
| 2026-05-04 05:33 | 64.37845 | -32.05513 | 37112 ft | 519 kts | 113° |
| 2026-05-04 05:34 | 64.35136 | -31.90069 | 37101 ft | 519 kts | 113° |
| 2026-05-04 05:34 | 64.32407 | -31.74638 | 37095 ft | 520 kts | 113° |
| 2026-05-04 05:35 | 64.29664 | -31.59245 | 37093 ft | 519 kts | 113° |
| 2026-05-04 05:35 | 64.26904 | -31.43884 | 37093 ft | 519 kts | 113° |
| 2026-05-04 05:36 | 64.24133 | -31.28576 | 37090 ft | 519 kts | 114° |
| 2026-05-04 05:36 | 64.21346 | -31.13298 | 37108 ft | 518 kts | 114° |
| 2026-05-04 05:37 | 64.18543 | -30.98052 | 37106 ft | 518 kts | 114° |
| 2026-05-04 05:37 | 64.15741 | -30.82931 | 37104 ft | 518 kts | 114° |
| 2026-05-04 05:38 | 64.11469 | -30.60087 | 37100 ft | 518 kts | 114° |
| 2026-05-04 05:38 | 64.08636 | -30.45080 | 37086 ft | 518 kts | 114° |
| 2026-05-04 05:39 | 64.04327 | -30.22469 | 37083 ft | 517 kts | 114° |
| 2026-05-04 05:40 | 63.99972 | -29.99937 | 37083 ft | 518 kts | 116° |
| 2026-05-04 05:40 | 63.96612 | -29.85479 | 37105 ft | 516 kts | 120° |
| 2026-05-04 05:41 | 63.93123 | -29.71190 | 37099 ft | 516 kts | 120° |
| 2026-05-04 05:41 | 63.89638 | -29.56941 | 37101 ft | 516 kts | 120° |
| 2026-05-04 05:42 | 63.86158 | -29.42686 | 37106 ft | 516 kts | 120° |
| 2026-05-04 05:42 | 63.82670 | -29.28450 | 37111 ft | 516 kts | 120° |
| 2026-05-04 05:43 | 63.79174 | -29.14272 | 37110 ft | 516 kts | 121° |
| 2026-05-04 05:45 | 63.65042 | -28.57913 | 37126 ft | 516 kts | 121° |
| 2026-05-04 05:47 | 63.50685 | -28.02091 | 37130 ft | 516 kts | 121° |
| 2026-05-04 05:47 | 63.47072 | -27.88260 | 37130 ft | 516 kts | 122° |
| 2026-05-04 05:48 | 63.43434 | -27.74424 | 37132 ft | 516 kts | 122° |
| 2026-05-04 05:48 | 63.39791 | -27.60651 | 37135 ft | 516 kts | 122° |
| 2026-05-04 05:49 | 63.36147 | -27.46960 | 37136 ft | 516 kts | 122° |
| 2026-05-04 05:49 | 63.32475 | -27.33247 | 37135 ft | 515 kts | 122° |
| 2026-05-04 05:51 | 63.17679 | -26.78830 | 37135 ft | 514 kts | 122° |
| 2026-05-04 05:52 | 63.13954 | -26.65337 | 37139 ft | 514 kts | 123° |
| 2026-05-04 05:52 | 63.10213 | -26.51866 | 37136 ft | 514 kts | 123° |
| 2026-05-04 05:54 | 62.95131 | -25.98360 | 37136 ft | 514 kts | 123° |
| 2026-05-04 05:55 | 62.91326 | -25.85062 | 37136 ft | 514 kts | 123° |
| 2026-05-04 05:55 | 62.87544 | -25.71918 | 37132 ft | 513 kts | 123° |
| 2026-05-04 05:56 | 62.83723 | -25.58717 | 37139 ft | 513 kts | 123° |
| 2026-05-04 05:56 | 62.79894 | -25.45561 | 37130 ft | 512 kts | 124° |
| 2026-05-04 05:57 | 62.76053 | -25.32445 | 37131 ft | 512 kts | 124° |
| 2026-05-04 05:57 | 62.72205 | -25.19378 | 37129 ft | 512 kts | 124° |
| 2026-05-04 05:58 | 62.68344 | -25.06343 | 37133 ft | 512 kts | 124° |
| 2026-05-04 05:58 | 62.64474 | -24.93353 | 37127 ft | 511 kts | 124° |
| 2026-05-04 05:59 | 62.60600 | -24.80425 | 37126 ft | 511 kts | 124° |
| 2026-05-04 05:59 | 62.56708 | -24.67509 | 37132 ft | 511 kts | 124° |
| 2026-05-04 06:00 | 62.52813 | -24.54654 | 37121 ft | 511 kts | 124° |
| 2026-05-04 06:00 | 62.48895 | -24.41799 | 37129 ft | 511 kts | 124° |
| 2026-05-04 06:01 | 62.44967 | -24.28980 | 37120 ft | 511 kts | 125° |
| 2026-05-04 06:03 | 62.29189 | -23.78211 | 37124 ft | 511 kts | 125° |
| 2026-05-04 06:05 | 62.11217 | -23.21722 | 37109 ft | 510 kts | 126° |
| 2026-05-04 06:06 | 62.07195 | -23.09271 | 37106 ft | 510 kts | 126° |
| 2026-05-04 06:06 | 62.03159 | -22.96842 | 37106 ft | 510 kts | 126° |
| 2026-05-04 06:07 | 61.99112 | -22.84446 | 37096 ft | 510 kts | 126° |
| 2026-05-04 06:07 | 61.95052 | -22.72076 | 37090 ft | 509 kts | 127° |
| 2026-05-04 06:08 | 61.90993 | -22.59778 | 37084 ft | 508 kts | 127° |
| 2026-05-04 06:08 | 61.86929 | -22.47528 | 37104 ft | 508 kts | 127° |
| 2026-05-04 06:09 | 61.82846 | -22.35290 | 37102 ft | 508 kts | 127° |
| 2026-05-04 06:11 | 61.66438 | -21.86747 | 37087 ft | 507 kts | 127° |
| 2026-05-04 06:13 | 61.49892 | -21.38811 | 37081 ft | 506 kts | 128° |
| 2026-05-04 06:14 | 61.35336 | -20.97448 | 37078 ft | 505 kts | 128° |
| 2026-05-04 06:15 | 61.31150 | -20.85688 | 37075 ft | 505 kts | 128° |
| 2026-05-04 06:15 | 61.26965 | -20.73993 | 37071 ft | 504 kts | 128° |
| 2026-05-04 06:16 | 61.22763 | -20.62309 | 37072 ft | 504 kts | 129° |
| 2026-05-04 06:16 | 61.18559 | -20.50676 | 37069 ft | 504 kts | 129° |
| 2026-05-04 06:17 | 61.14346 | -20.39078 | 37068 ft | 503 kts | 129° |
| 2026-05-04 06:17 | 61.10136 | -20.27543 | 37067 ft | 503 kts | 129° |
| 2026-05-04 06:18 | 61.05909 | -20.16021 | 37068 ft | 503 kts | 129° |
| 2026-05-04 06:20 | 60.89906 | -19.68786 | 37060 ft | 503 kts | 125° |
| 2026-05-04 06:21 | 60.80185 | -19.39005 | 37058 ft | 502 kts | 126° |
| 2026-05-04 06:22 | 60.76279 | -19.27171 | 37057 ft | 501 kts | 126° |
| 2026-05-04 06:25 | 60.49374 | -18.47215 | 37047 ft | 500 kts | 127° |
| 2026-05-04 06:26 | 60.45407 | -18.35656 | 37045 ft | 500 kts | 127° |
| 2026-05-04 06:26 | 60.41428 | -18.24117 | 37042 ft | 500 kts | 127° |
| 2026-05-04 06:27 | 60.31439 | -17.95401 | 37039 ft | 499 kts | 127° |
| 2026-05-04 06:28 | 60.27432 | -17.83980 | 37039 ft | 499 kts | 127° |
| 2026-05-04 06:28 | 60.23418 | -17.72596 | 37040 ft | 499 kts | 127° |
| 2026-05-04 06:29 | 60.19390 | -17.61228 | 37041 ft | 499 kts | 128° |
| 2026-05-04 06:29 | 60.15353 | -17.49888 | 37037 ft | 499 kts | 128° |
| 2026-05-04 06:30 | 60.11303 | -17.38570 | 37035 ft | 499 kts | 128° |
| 2026-05-04 06:30 | 60.07255 | -17.27308 | 37033 ft | 498 kts | 128° |
| 2026-05-04 06:31 | 60.03190 | -17.16054 | 37037 ft | 498 kts | 128° |
| 2026-05-04 06:31 | 59.99123 | -17.04852 | 37034 ft | 498 kts | 128° |
| 2026-05-04 06:33 | 59.82751 | -16.60280 | 37025 ft | 498 kts | 128° |
| 2026-05-04 06:34 | 59.78665 | -16.49289 | 37028 ft | 498 kts | 129° |
| 2026-05-04 06:34 | 59.74537 | -16.38236 | 37025 ft | 498 kts | 129° |
| 2026-05-04 06:36 | 59.57959 | -15.94363 | 37015 ft | 497 kts | 129° |
| 2026-05-04 06:37 | 59.53793 | -15.83468 | 37025 ft | 498 kts | 129° |
| 2026-05-04 06:37 | 59.49612 | -15.72581 | 37021 ft | 498 kts | 129° |
| 2026-05-04 06:38 | 59.45434 | -15.61754 | 37015 ft | 498 kts | 129° |
| 2026-05-04 06:40 | 59.28608 | -15.18649 | 37011 ft | 497 kts | 130° |
| 2026-05-04 06:40 | 59.24389 | -15.07963 | 37014 ft | 497 kts | 130° |
| 2026-05-04 06:41 | 59.20182 | -14.97356 | 37011 ft | 497 kts | 130° |
| 2026-05-04 06:41 | 59.15940 | -14.86709 | 37015 ft | 497 kts | 130° |
| 2026-05-04 06:42 | 59.11697 | -14.76108 | 37013 ft | 497 kts | 130° |
| 2026-05-04 06:44 | 58.94617 | -14.33910 | 37018 ft | 497 kts | 130° |
| 2026-05-04 06:44 | 58.90333 | -14.23445 | 37011 ft | 497 kts | 130° |
| 2026-05-04 06:45 | 58.86035 | -14.12989 | 37013 ft | 496 kts | 131° |
| 2026-05-04 06:45 | 58.81733 | -14.02572 | 37027 ft | 496 kts | 131° |
| 2026-05-04 06:46 | 58.77428 | -13.92194 | 37026 ft | 496 kts | 131° |
| 2026-05-04 06:46 | 58.73112 | -13.81835 | 37008 ft | 496 kts | 131° |
| 2026-05-04 06:48 | 58.55741 | -13.40597 | 37010 ft | 496 kts | 131° |
| 2026-05-04 06:50 | 58.38252 | -12.99798 | 37018 ft | 496 kts | 131° |
| 2026-05-04 06:51 | 58.33891 | -12.89735 | 37014 ft | 496 kts | 131° |
| 2026-05-04 06:51 | 58.29493 | -12.79628 | 37018 ft | 496 kts | 131° |
| 2026-05-04 06:52 | 58.25087 | -12.69547 | 37011 ft | 496 kts | 131° |
| 2026-05-04 06:52 | 58.20674 | -12.59493 | 37017 ft | 496 kts | 131° |
| 2026-05-04 06:53 | 58.16250 | -12.49458 | 37023 ft | 496 kts | 131° |
| 2026-05-04 06:53 | 58.11818 | -12.39447 | 37019 ft | 496 kts | 131° |
| 2026-05-04 06:54 | 58.07382 | -12.29468 | 37018 ft | 495 kts | 131° |
| 2026-05-04 06:54 | 58.02940 | -12.19517 | 37023 ft | 495 kts | 131° |
| 2026-05-04 06:55 | 57.98490 | -12.09593 | 37025 ft | 495 kts | 131° |
| 2026-05-04 06:55 | 57.94043 | -11.99715 | 37024 ft | 495 kts | 131° |
| 2026-05-04 06:57 | 57.76156 | -11.60404 | 37031 ft | 494 kts | 131° |
| 2026-05-04 06:58 | 57.71672 | -11.50651 | 37030 ft | 494 kts | 131° |
| 2026-05-04 06:58 | 57.67179 | -11.40918 | 37030 ft | 494 kts | 131° |
| 2026-05-04 06:59 | 57.62687 | -11.31229 | 37033 ft | 494 kts | 131° |
| 2026-05-04 06:59 | 57.58181 | -11.21548 | 37035 ft | 494 kts | 132° |
| 2026-05-04 07:01 | 57.40104 | -10.83109 | 37039 ft | 493 kts | 132° |
| 2026-05-04 07:02 | 57.35598 | -10.73624 | 37036 ft | 493 kts | 132° |
| 2026-05-04 07:02 | 57.31059 | -10.64110 | 37040 ft | 493 kts | 132° |
| 2026-05-04 07:03 | 57.26481 | -10.54551 | 37049 ft | 493 kts | 132° |
| 2026-05-04 07:03 | 57.21964 | -10.45158 | 37042 ft | 492 kts | 132° |
| 2026-05-04 07:04 | 57.17418 | -10.35742 | 37038 ft | 492 kts | 132° |
| 2026-05-04 07:04 | 57.12858 | -10.26334 | 37045 ft | 492 kts | 132° |
| 2026-05-04 07:05 | 57.08298 | -10.16960 | 37043 ft | 492 kts | 132° |
| 2026-05-04 07:05 | 57.03731 | -10.07602 | 37049 ft | 491 kts | 131° |
| 2026-05-04 07:06 | 56.99978 | -9.97201 | 37050 ft | 489 kts | 115° |
| 2026-05-04 07:06 | 56.98640 | -9.91468 | 37050 ft | 488 kts | 107° |
| 2026-05-04 07:07 | 56.96862 | -9.79478 | 37057 ft | 487 kts | 102° |
| 2026-05-04 07:08 | 56.87519 | -9.40156 | 37058 ft | 490 kts | 134° |
| 2026-05-04 07:09 | 56.85173 | -9.35746 | 37060 ft | 491 kts | 134° |
| 2026-05-04 07:09 | 56.80372 | -9.26902 | 37050 ft | 490 kts | 134° |
| 2026-05-04 07:10 | 56.75591 | -9.18043 | 37058 ft | 490 kts | 134° |
| 2026-05-04 07:12 | 56.56585 | -8.82602 | 37060 ft | 488 kts | 134° |
| 2026-05-04 07:12 | 56.51832 | -8.73820 | 37061 ft | 487 kts | 134° |
| 2026-05-04 07:13 | 56.47882 | -8.66547 | 37081 ft | 487 kts | 134° |
| 2026-05-04 07:13 | 56.43125 | -8.57819 | 37060 ft | 487 kts | 134° |
| 2026-05-04 07:14 | 56.31224 | -8.36127 | 37068 ft | 486 kts | 134° |
| 2026-05-04 07:15 | 56.26466 | -8.27511 | 37065 ft | 486 kts | 134° |
| 2026-05-04 07:15 | 56.21699 | -8.18911 | 37086 ft | 485 kts | 134° |
| 2026-05-04 07:16 | 56.16932 | -8.10344 | 37072 ft | 484 kts | 134° |
| 2026-05-04 07:16 | 56.12168 | -8.01813 | 37065 ft | 484 kts | 134° |
| 2026-05-04 07:17 | 56.07399 | -7.93305 | 37070 ft | 484 kts | 134° |
| 2026-05-04 07:17 | 56.02626 | -7.84822 | 37091 ft | 483 kts | 134° |
| 2026-05-04 07:18 | 55.97864 | -7.76389 | 37078 ft | 483 kts | 134° |
| 2026-05-04 07:18 | 55.93083 | -7.67954 | 37067 ft | 482 kts | 134° |
| 2026-05-04 07:19 | 55.88320 | -7.59580 | 37073 ft | 482 kts | 134° |
| 2026-05-04 07:19 | 55.83542 | -7.51212 | 37072 ft | 481 kts | 134° |
| 2026-05-04 07:20 | 55.78774 | -7.42890 | 37091 ft | 480 kts | 134° |
| 2026-05-04 07:20 | 55.73993 | -7.34578 | 37079 ft | 480 kts | 134° |
| 2026-05-04 07:22 | 55.54949 | -7.01758 | 37077 ft | 477 kts | 134° |
| 2026-05-04 07:23 | 55.50176 | -6.93606 | 37077 ft | 477 kts | 134° |
| 2026-05-04 07:23 | 55.45409 | -6.85492 | 37090 ft | 476 kts | 134° |
| 2026-05-04 07:24 | 55.40640 | -6.77406 | 37086 ft | 475 kts | 134° |
| 2026-05-04 07:24 | 55.35874 | -6.69350 | 37076 ft | 475 kts | 134° |
| 2026-05-04 07:26 | 55.16809 | -6.37414 | 37080 ft | 473 kts | 134° |
| 2026-05-04 07:27 | 55.12049 | -6.29508 | 37084 ft | 473 kts | 134° |
| 2026-05-04 07:27 | 55.07269 | -6.21597 | 37083 ft | 473 kts | 134° |
| 2026-05-04 07:28 | 55.02498 | -6.13729 | 37077 ft | 472 kts | 135° |
| 2026-05-04 07:28 | 54.97718 | -6.05873 | 37081 ft | 472 kts | 135° |
| 2026-05-04 07:29 | 54.92941 | -5.98049 | 37076 ft | 472 kts | 135° |
| 2026-05-04 07:29 | 54.88188 | -5.90290 | 37077 ft | 471 kts | 135° |
| 2026-05-04 07:30 | 54.83403 | -5.82505 | 37075 ft | 472 kts | 135° |
| 2026-05-04 07:30 | 54.78611 | -5.74737 | 37079 ft | 472 kts | 135° |
| 2026-05-04 07:31 | 54.73815 | -5.66987 | 37076 ft | 471 kts | 135° |
| 2026-05-04 07:33 | 54.54560 | -5.36138 | 37070 ft | 472 kts | 135° |
| 2026-05-04 07:33 | 54.49732 | -5.28468 | 37070 ft | 472 kts | 135° |
| 2026-05-04 07:34 | 54.44896 | -5.20811 | 37070 ft | 472 kts | 135° |
| 2026-05-04 07:34 | 54.40064 | -5.13186 | 37063 ft | 472 kts | 135° |
| 2026-05-04 07:35 | 54.35230 | -5.05584 | 37064 ft | 471 kts | 135° |
| 2026-05-04 07:35 | 54.30393 | -4.98001 | 37064 ft | 470 kts | 135° |
| 2026-05-04 07:36 | 54.25566 | -4.90460 | 37053 ft | 470 kts | 135° |
| 2026-05-04 07:38 | 54.06258 | -4.60540 | 37050 ft | 468 kts | 135° |
| 2026-05-04 07:38 | 54.01457 | -4.53160 | 37048 ft | 468 kts | 135° |
| 2026-05-04 07:39 | 53.96626 | -4.45753 | 37051 ft | 467 kts | 135° |
| 2026-05-04 07:39 | 53.91833 | -4.38319 | 37048 ft | 466 kts | 132° |
| 2026-05-04 07:40 | 53.87738 | -4.29861 | 37053 ft | 462 kts | 121° |
| 2026-05-04 07:40 | 53.84159 | -4.20810 | 37059 ft | 463 kts | 122° |
| 2026-05-04 07:41 | 53.80505 | -4.11857 | 37054 ft | 462 kts | 123° |
| 2026-05-04 07:41 | 53.76821 | -4.02962 | 37053 ft | 462 kts | 123° |
| 2026-05-04 07:42 | 53.73132 | -3.94070 | 37051 ft | 462 kts | 123° |
| 2026-05-04 07:42 | 53.69449 | -3.85204 | 37050 ft | 462 kts | 123° |
| 2026-05-04 07:43 | 53.65753 | -3.76331 | 37050 ft | 462 kts | 123° |
| 2026-05-04 07:43 | 53.62061 | -3.67503 | 37049 ft | 462 kts | 123° |
| 2026-05-04 07:44 | 53.58349 | -3.58656 | 37048 ft | 462 kts | 123° |
| 2026-05-04 07:44 | 53.54643 | -3.49840 | 37046 ft | 462 kts | 123° |
| 2026-05-04 07:45 | 53.50923 | -3.41015 | 37046 ft | 462 kts | 124° |
| 2026-05-04 07:45 | 53.47200 | -3.32216 | 37047 ft | 462 kts | 124° |
| 2026-05-04 07:46 | 53.43492 | -3.23478 | 37046 ft | 462 kts | 124° |
| 2026-05-04 07:46 | 53.39731 | -3.14647 | 37049 ft | 462 kts | 124° |
| 2026-05-04 07:47 | 53.35952 | -3.06018 | 37053 ft | 463 kts | 126° |
| 2026-05-04 07:49 | 53.20491 | -2.71575 | 37047 ft | 463 kts | 126° |
| 2026-05-04 07:49 | 53.16615 | -2.62974 | 37048 ft | 464 kts | 126° |
| 2026-05-04 07:50 | 53.12729 | -2.54417 | 37040 ft | 464 kts | 124° |
| 2026-05-04 07:50 | 53.09108 | -2.45499 | 37048 ft | 464 kts | 123° |
| 2026-05-04 07:51 | 53.05530 | -2.36590 | 37039 ft | 464 kts | 123° |
| 2026-05-04 07:51 | 53.01906 | -2.27723 | 37043 ft | 464 kts | 124° |
| 2026-05-04 07:52 | 52.98265 | -2.18840 | 37044 ft | 465 kts | 124° |
| 2026-05-04 07:52 | 52.94627 | -2.09977 | 37038 ft | 465 kts | 124° |
| 2026-05-04 07:54 | 52.80058 | -1.74572 | 37044 ft | 466 kts | 124° |
| 2026-05-04 07:55 | 52.76405 | -1.65715 | 37016 ft | 466 kts | 124° |
| 2026-05-04 07:55 | 52.72752 | -1.56869 | 37001 ft | 466 kts | 124° |
| 2026-05-04 07:56 | 52.69108 | -1.48058 | 36994 ft | 466 kts | 125° |
| 2026-05-04 07:56 | 52.65445 | -1.39208 | 36993 ft | 467 kts | 125° |
| 2026-05-04 07:57 | 52.61784 | -1.30374 | 36992 ft | 468 kts | 125° |
| 2026-05-04 07:57 | 52.58112 | -1.21520 | 36999 ft | 467 kts | 125° |
| 2026-05-04 07:58 | 52.55581 | -1.15422 | 37006 ft | 468 kts | 125° |
| 2026-05-04 07:59 | 52.53083 | -1.09406 | 37015 ft | 468 kts | 125° |
| 2026-05-04 07:59 | 52.49423 | -1.00590 | 37021 ft | 469 kts | 125° |
| 2026-05-04 08:00 | 52.45739 | -0.91722 | 37028 ft | 468 kts | 125° |
| 2026-05-04 08:02 | 52.31319 | -0.57059 | 34031 ft | 462 kts | 126° |
| 2026-05-04 08:02 | 52.29525 | -0.52751 | 33446 ft | 458 kts | 126° |
| 2026-05-04 08:02 | 52.27977 | -0.49031 | 33038 ft | 453 kts | 126° |
| 2026-05-04 08:03 | 52.26208 | -0.44776 | 32551 ft | 447 kts | 126° |
| 2026-05-04 08:03 | 52.25052 | -0.41994 | 32210 ft | 444 kts | 127° |
| 2026-05-04 08:03 | 52.23321 | -0.37823 | 31661 ft | 441 kts | 127° |
| 2026-05-04 08:03 | 52.21616 | -0.33712 | 31134 ft | 438 kts | 127° |
| 2026-05-04 08:04 | 52.19916 | -0.29608 | 30609 ft | 435 kts | 128° |
| 2026-05-04 08:04 | 52.18230 | -0.25530 | 30113 ft | 431 kts | 128° |
| 2026-05-04 08:04 | 52.16570 | -0.21513 | 29559 ft | 428 kts | 128° |
| 2026-05-04 08:04 | 52.14911 | -0.17497 | 29024 ft | 424 kts | 128° |
| 2026-05-04 08:05 | 52.13357 | -0.14117 | 28552 ft | 415 kts | 137° |
| 2026-05-04 08:05 | 52.11202 | -0.11101 | 27989 ft | 404 kts | 151° |
| 2026-05-04 08:05 | 52.08853 | -0.09010 | 27517 ft | 396 kts | 160° |
| 2026-05-04 08:05 | 52.06295 | -0.07501 | 26994 ft | 390 kts | 166° |
| 2026-05-04 08:06 | 52.03705 | -0.06119 | 26462 ft | 388 kts | 165° |
| 2026-05-04 08:06 | 52.01426 | -0.04893 | 25998 ft | 386 kts | 165° |
| 2026-05-04 08:06 | 51.98884 | -0.03516 | 25556 ft | 383 kts | 165° |
| 2026-05-04 08:06 | 51.96384 | -0.02154 | 25159 ft | 378 kts | 165° |
| 2026-05-04 08:08 | 51.79152 | 0.07263 | 21781 ft | 371 kts | 164° |
| 2026-05-04 08:08 | 51.76721 | 0.08588 | 21336 ft | 368 kts | 164° |
| 2026-05-04 08:10 | 51.57691 | 0.17390 | 17906 ft | 347 kts | 172° |
| 2026-05-04 08:11 | 51.55334 | 0.18019 | 17748 ft | 336 kts | 172° |
| 2026-05-04 08:11 | 51.50858 | 0.19276 | 17488 ft | 315 kts | 171° |
| 2026-05-04 08:11 | 51.48742 | 0.19890 | 17413 ft | 303 kts | 171° |
| 2026-05-04 08:12 | 51.46710 | 0.20485 | 17318 ft | 292 kts | 171° |
| 2026-05-04 08:12 | 51.44742 | 0.21064 | 17202 ft | 282 kts | 171° |
| 2026-05-04 08:12 | 51.42853 | 0.21620 | 17039 ft | 275 kts | 171° |
| 2026-05-04 08:12 | 51.40961 | 0.22177 | 16774 ft | 271 kts | 171° |
| 2026-05-04 08:13 | 51.39113 | 0.22721 | 16427 ft | 270 kts | 171° |
| 2026-05-04 08:13 | 51.37272 | 0.23262 | 16088 ft | 270 kts | 171° |
| 2026-05-04 08:13 | 51.36262 | 0.23559 | 15907 ft | 270 kts | 171° |
| 2026-05-04 08:13 | 51.34441 | 0.24095 | 15611 ft | 268 kts | 171° |
| 2026-05-04 08:14 | 51.32594 | 0.24513 | 15252 ft | 263 kts | 183° |
| 2026-05-04 08:14 | 51.30846 | 0.23831 | 14823 ft | 263 kts | 208° |
| 2026-05-04 08:14 | 51.29431 | 0.22008 | 14496 ft | 262 kts | 231° |
| 2026-05-04 08:16 | 51.32909 | 0.03898 | 12308 ft | 262 kts | 301° |
| 2026-05-04 08:16 | 51.34108 | 0.01752 | 11892 ft | 264 kts | 324° |
| 2026-05-04 08:16 | 51.35820 | 0.00680 | 11543 ft | 268 kts | 353° |
| 2026-05-04 08:17 | 51.37661 | 0.00996 | 11269 ft | 267 kts | 17° |
| 2026-05-04 08:17 | 51.39270 | 0.02412 | 10947 ft | 267 kts | 44° |
| 2026-05-04 08:17 | 51.40281 | 0.04865 | 10645 ft | 264 kts | 72° |
| 2026-05-04 08:17 | 51.40690 | 0.07719 | 10322 ft | 261 kts | 81° |
| 2026-05-04 08:19 | 51.41416 | 0.14113 | 9622 ft | 260 kts | 81° |
| 2026-05-04 08:19 | 51.41513 | 0.14976 | 9533 ft | 259 kts | 81° |
| 2026-05-04 08:20 | 51.41829 | 0.17821 | 9234 ft | 258 kts | 81° |
| 2026-05-04 08:20 | 51.42139 | 0.20645 | 8929 ft | 256 kts | 81° |
| 2026-05-04 08:20 | 51.42440 | 0.23409 | 8465 ft | 251 kts | 81° |
| 2026-05-04 08:20 | 51.43006 | 0.26045 | 7831 ft | 253 kts | 55° |
| 2026-05-04 08:21 | 51.44289 | 0.27885 | 7295 ft | 249 kts | 23° |
| 2026-05-04 08:21 | 51.45907 | 0.28342 | 7115 ft | 231 kts | 350° |
| 2026-05-04 08:21 | 51.47430 | 0.27505 | 6871 ft | 240 kts | 332° |
| 2026-05-04 08:21 | 51.48948 | 0.26271 | 6451 ft | 251 kts | 329° |
| 2026-05-04 08:22 | 51.50259 | 0.24402 | 5910 ft | 254 kts | 301° |
| 2026-05-04 08:22 | 51.50906 | 0.21833 | 5422 ft | 248 kts | 284° |
| 2026-05-04 08:24 | 51.50102 | 0.03871 | 4002 ft | 232 kts | 251° |
| 2026-05-04 08:24 | 51.49561 | 0.01377 | 4018 ft | 240 kts | 251° |
| 2026-05-04 08:24 | 51.49011 | -0.01137 | 4001 ft | 237 kts | 251° |
| 2026-05-04 08:24 | 51.48904 | -0.01628 | 4000 ft | 236 kts | 251° |
| 2026-05-04 08:25 | 51.48578 | -0.03115 | 3992 ft | 235 kts | 251° |
| 2026-05-04 08:25 | 51.48061 | -0.05576 | 3985 ft | 229 kts | 257° |
| 2026-05-04 08:25 | 51.47882 | -0.08091 | 4004 ft | 229 kts | 268° |
| 2026-05-04 08:25 | 51.47865 | -0.10675 | 4011 ft | 232 kts | 270° |
| 2026-05-04 08:26 | 51.47867 | -0.13298 | 3811 ft | 239 kts | 270° |
| 2026-05-04 08:27 | 51.47835 | -0.23785 | 2513 ft | 188 kts | 270° |
| 2026-05-04 08:28 | 51.47828 | -0.25864 | 2296 ft | 192 kts | 270° |
| 2026-05-04 08:28 | 51.47821 | -0.28022 | 2059 ft | 194 kts | 270° |
| 2026-05-04 08:28 | 51.47813 | -0.30176 | 1770 ft | 193 kts | 270° |
| 2026-05-04 08:28 | 51.47807 | -0.31824 | 1560 ft | 186 kts | 270° |
| 2026-05-04 08:29 | 51.47806 | -0.32129 | 1508 ft | 183 kts | 270° |
| 2026-05-04 08:29 | 51.47799 | -0.33997 | 1296 ft | 152 kts | 271° |
| 2026-05-04 08:31 | 51.47758 | -0.43503 | 133 ft | 125 kts | 273° |
| 2026-05-04 08:33 | 51.47495 | -0.46968 | 96 ft | 8 kts | 238° |
| 2026-05-04 08:33 | 51.47492 | -0.47058 | 92 ft | 9 kts | 270° |
| 2026-05-04 08:35 | 51.47396 | -0.47485 | 95 ft | 0 kts | 270° |